<?xml version="1.0" encoding="UTF-8" standalone="no" ?>
<gpx xmlns="http://www.topografix.com/GPX/1/1" xmlns:xsi="http://www.w3.org/2001/XMLSchema-instance" xsi:schemaLocation="http://www.topografix.com/GPX/1/1 http://www.topografix.com/GPX/1/1/gpx.xsd" version="1.1" creator="VisuGPX - https://www.visugpx.com">
  <metadata>
    <name>Gorniès - Rocher de la Tude - grotte d'Anjeau</name>
    <desc><![CDATA[2015-04 - Gorniès - Caucanas - Rochers de la Tude - Pic et grotte d'Anjeau

[b]album[/b] : [url]https://goo.gl/photos/3PhbvhggxuTsJ2tX9[/url]
[img]https://4.bp.blogspot.com/-GLTGIMSpBAM/WNQpKmR0TUI/AAAAAAAARSs/5yimowa813wkjny-JBBjIS810WlFrusEACLcB/s1600/2015-04_Gornies_Caucanas_Rochers-Tude_Pic-Anjeau_photos_i.JPG[/img]
[b]Idées de randonnées dans la même région[/b]
Parcours : [url]https://www.visugpx.com/membres/24856/causses/la-vis-navacelles/[/url]
Photos : [url]https://jcvertygo.blogspot.com/p/vis.html[/url]]]></desc>
  </metadata>
  <trk>
    <name><![CDATA[Gorniès - Rocher de la Tude - grotte d'Anjeau_1]]></name>
    <trkseg>
      <trkpt lat="43.88998" lon="3.62496">
        <ele>196</ele>
        <time>2015-04-11T10:33:10Z</time>
      </trkpt>
      <trkpt lat="43.88989" lon="3.62495">
        <ele>196</ele>
        <time>2015-04-11T10:33:15Z</time>
      </trkpt>
      <trkpt lat="43.88986" lon="3.62499">
        <ele>198.2927346959</ele>
        <time>2015-04-11T10:34:00Z</time>
      </trkpt>
      <trkpt lat="43.88987" lon="3.62501">
        <ele>198.2927346959</ele>
        <time>2015-04-11T10:34:05Z</time>
      </trkpt>
      <trkpt lat="43.8899" lon="3.625">
        <ele>198.2927346959</ele>
        <time>2015-04-11T10:34:20Z</time>
      </trkpt>
      <trkpt lat="43.88993" lon="3.62504">
        <ele>198.2927346959</ele>
        <time>2015-04-11T10:34:25Z</time>
      </trkpt>
      <trkpt lat="43.88994" lon="3.62504">
        <ele>199.34932437572</ele>
        <time>2015-04-11T10:35:06Z</time>
      </trkpt>
      <trkpt lat="43.88967" lon="3.62484">
        <ele>200.36328300008</ele>
        <time>2015-04-11T10:35:43Z</time>
      </trkpt>
      <trkpt lat="43.88941" lon="3.62473">
        <ele>201.32084665181</ele>
        <time>2015-04-11T10:35:51Z</time>
      </trkpt>
      <trkpt lat="43.88913" lon="3.62454">
        <ele>202.21580239907</ele>
        <time>2015-04-11T10:36:17Z</time>
      </trkpt>
      <trkpt lat="43.88853" lon="3.62421">
        <ele>202.90873287045</ele>
        <time>2015-04-11T10:37:06Z</time>
      </trkpt>
      <trkpt lat="43.88842" lon="3.62415">
        <ele>203.29701361646</ele>
        <time>2015-04-11T10:37:10Z</time>
      </trkpt>
      <trkpt lat="43.88832" lon="3.62399">
        <ele>203.49272300842</ele>
        <time>2015-04-11T10:37:32Z</time>
      </trkpt>
      <trkpt lat="43.88848" lon="3.62373">
        <ele>203.49742443887</ele>
        <time>2015-04-11T10:38:12Z</time>
      </trkpt>
      <trkpt lat="43.8886" lon="3.62351">
        <ele>203.55643112209</ele>
        <time>2015-04-11T10:39:00Z</time>
      </trkpt>
      <trkpt lat="43.88867" lon="3.6235">
        <ele>203.55643112209</ele>
        <time>2015-04-11T10:39:11Z</time>
      </trkpt>
      <trkpt lat="43.88867" lon="3.62368">
        <ele>203.58940034351</ele>
        <time>2015-04-11T10:40:06Z</time>
      </trkpt>
      <trkpt lat="43.88911" lon="3.62362">
        <ele>203.8019040687</ele>
        <time>2015-04-11T10:40:10Z</time>
      </trkpt>
      <trkpt lat="43.88947" lon="3.62379">
        <ele>205.70629460777</ele>
        <time>2015-04-11T10:41:16Z</time>
      </trkpt>
      <trkpt lat="43.8895" lon="3.62377">
        <ele>205.70629460777</ele>
        <time>2015-04-11T10:41:19Z</time>
      </trkpt>
      <trkpt lat="43.88954" lon="3.62375">
        <ele>205.70629460777</ele>
        <time>2015-04-11T10:41:23Z</time>
      </trkpt>
      <trkpt lat="43.88958" lon="3.62375">
        <ele>207.62123915548</ele>
        <time>2015-04-11T10:41:33Z</time>
      </trkpt>
      <trkpt lat="43.89018" lon="3.62373">
        <ele>212.22803105384</ele>
        <time>2015-04-11T10:42:12Z</time>
      </trkpt>
      <trkpt lat="43.89024" lon="3.62374">
        <ele>212.22803105384</ele>
        <time>2015-04-11T10:42:17Z</time>
      </trkpt>
      <trkpt lat="43.89034" lon="3.62386">
        <ele>217.47227075081</ele>
        <time>2015-04-11T10:43:06Z</time>
      </trkpt>
      <trkpt lat="43.89035" lon="3.62382">
        <ele>217.47227075081</ele>
        <time>2015-04-11T10:43:06Z</time>
      </trkpt>
      <trkpt lat="43.89042" lon="3.62372">
        <ele>221.78492120681</ele>
        <time>2015-04-11T10:43:25Z</time>
      </trkpt>
      <trkpt lat="43.89043" lon="3.62371">
        <ele>221.78492120681</ele>
        <time>2015-04-11T10:43:32Z</time>
      </trkpt>
      <trkpt lat="43.89038" lon="3.62381">
        <ele>224.77715229843</ele>
        <time>2015-04-11T10:43:35Z</time>
      </trkpt>
      <trkpt lat="43.89043" lon="3.62374">
        <ele>224.77715229843</ele>
        <time>2015-04-11T10:44:07Z</time>
      </trkpt>
      <trkpt lat="43.89048" lon="3.62375">
        <ele>227.70302557095</ele>
        <time>2015-04-11T10:44:47Z</time>
      </trkpt>
      <trkpt lat="43.89056" lon="3.62368">
        <ele>229.82821132951</ele>
        <time>2015-04-11T10:45:17Z</time>
      </trkpt>
      <trkpt lat="43.89057" lon="3.62368">
        <ele>229.82821132951</ele>
        <time>2015-04-11T10:45:42Z</time>
      </trkpt>
      <trkpt lat="43.89082" lon="3.62347">
        <ele>231.94005298352</ele>
        <time>2015-04-11T10:46:10Z</time>
      </trkpt>
      <trkpt lat="43.89083" lon="3.62346">
        <ele>231.94005298352</ele>
        <time>2015-04-11T10:46:17Z</time>
      </trkpt>
      <trkpt lat="43.89084" lon="3.62345">
        <ele>231.94005298352</ele>
        <time>2015-04-11T10:46:20Z</time>
      </trkpt>
      <trkpt lat="43.89086" lon="3.62345">
        <ele>231.94005298352</ele>
        <time>2015-04-11T10:46:27Z</time>
      </trkpt>
      <trkpt lat="43.89088" lon="3.62346">
        <ele>231.94005298352</ele>
        <time>2015-04-11T10:46:30Z</time>
      </trkpt>
      <trkpt lat="43.89101" lon="3.62349">
        <ele>234.02511625815</ele>
        <time>2015-04-11T10:47:02Z</time>
      </trkpt>
      <trkpt lat="43.89103" lon="3.62349">
        <ele>234.02511625815</ele>
        <time>2015-04-11T10:47:02Z</time>
      </trkpt>
      <trkpt lat="43.89104" lon="3.62349">
        <ele>234.02511625815</ele>
        <time>2015-04-11T10:47:10Z</time>
      </trkpt>
      <trkpt lat="43.89112" lon="3.6235">
        <ele>237.07553558966</ele>
        <time>2015-04-11T10:48:00Z</time>
      </trkpt>
      <trkpt lat="43.89114" lon="3.62351">
        <ele>237.07553558966</ele>
        <time>2015-04-11T10:48:00Z</time>
      </trkpt>
      <trkpt lat="43.89119" lon="3.62355">
        <ele>237.07553558966</ele>
        <time>2015-04-11T10:48:19Z</time>
      </trkpt>
      <trkpt lat="43.89132" lon="3.62359">
        <ele>240.02144933062</ele>
        <time>2015-04-11T10:48:29Z</time>
      </trkpt>
      <trkpt lat="43.89134" lon="3.62358">
        <ele>240.02144933062</ele>
        <time>2015-04-11T10:48:30Z</time>
      </trkpt>
      <trkpt lat="43.89153" lon="3.62359">
        <ele>243.03294690719</ele>
        <time>2015-04-11T10:49:06Z</time>
      </trkpt>
      <trkpt lat="43.89159" lon="3.62359">
        <ele>243.03294690719</ele>
        <time>2015-04-11T10:49:10Z</time>
      </trkpt>
      <trkpt lat="43.89176" lon="3.6236">
        <ele>246.21692359658</ele>
        <time>2015-04-11T10:49:41Z</time>
      </trkpt>
      <trkpt lat="43.892" lon="3.62352">
        <ele>249.38371310517</ele>
        <time>2015-04-11T10:49:53Z</time>
      </trkpt>
      <trkpt lat="43.89201" lon="3.62353">
        <ele>249.38371310517</ele>
        <time>2015-04-11T10:50:00Z</time>
      </trkpt>
      <trkpt lat="43.89213" lon="3.62356">
        <ele>252.67493242217</ele>
        <time>2015-04-11T10:50:16Z</time>
      </trkpt>
      <trkpt lat="43.89215" lon="3.62359">
        <ele>252.67493242217</ele>
        <time>2015-04-11T10:50:16Z</time>
      </trkpt>
      <trkpt lat="43.89227" lon="3.62358">
        <ele>256.82077060239</ele>
        <time>2015-04-11T10:50:51Z</time>
      </trkpt>
      <trkpt lat="43.89237" lon="3.62337">
        <ele>260.69986369196</ele>
        <time>2015-04-11T10:51:06Z</time>
      </trkpt>
      <trkpt lat="43.89241" lon="3.62331">
        <ele>260.69986369196</ele>
        <time>2015-04-11T10:51:06Z</time>
      </trkpt>
      <trkpt lat="43.89249" lon="3.62316">
        <ele>264.16583777962</ele>
        <time>2015-04-11T10:51:31Z</time>
      </trkpt>
      <trkpt lat="43.89251" lon="3.62286">
        <ele>267.20708420112</ele>
        <time>2015-04-11T10:52:04Z</time>
      </trkpt>
      <trkpt lat="43.89252" lon="3.62276">
        <ele>267.20708420112</ele>
        <time>2015-04-11T10:52:05Z</time>
      </trkpt>
      <trkpt lat="43.89251" lon="3.62272">
        <ele>270.03280379451</ele>
        <time>2015-04-11T10:52:10Z</time>
      </trkpt>
      <trkpt lat="43.89245" lon="3.62258">
        <ele>272.57215658323</ele>
        <time>2015-04-11T10:52:30Z</time>
      </trkpt>
      <trkpt lat="43.89253" lon="3.62222">
        <ele>274.66050190073</ele>
        <time>2015-04-11T10:52:43Z</time>
      </trkpt>
      <trkpt lat="43.89275" lon="3.62194">
        <ele>276.54904694767</ele>
        <time>2015-04-11T10:53:06Z</time>
      </trkpt>
      <trkpt lat="43.89276" lon="3.62183">
        <ele>276.54904694767</ele>
        <time>2015-04-11T10:53:19Z</time>
      </trkpt>
      <trkpt lat="43.89269" lon="3.62135">
        <ele>278.79918859557</ele>
        <time>2015-04-11T10:53:54Z</time>
      </trkpt>
      <trkpt lat="43.89265" lon="3.6212">
        <ele>281.09193295693</ele>
        <time>2015-04-11T10:53:55Z</time>
      </trkpt>
      <trkpt lat="43.89268" lon="3.62107">
        <ele>283.29637290967</ele>
        <time>2015-04-11T10:54:06Z</time>
      </trkpt>
      <trkpt lat="43.89265" lon="3.6209">
        <ele>285.37496641481</ele>
        <time>2015-04-11T10:54:12Z</time>
      </trkpt>
      <trkpt lat="43.89259" lon="3.62079">
        <ele>287.24937371127</ele>
        <time>2015-04-11T10:54:19Z</time>
      </trkpt>
      <trkpt lat="43.89258" lon="3.6208">
        <ele>287.24937371127</ele>
        <time>2015-04-11T10:54:35Z</time>
      </trkpt>
      <trkpt lat="43.89256" lon="3.6208">
        <ele>287.24937371127</ele>
        <time>2015-04-11T10:54:35Z</time>
      </trkpt>
      <trkpt lat="43.89256" lon="3.62082">
        <ele>287.24937371127</ele>
        <time>2015-04-11T10:55:07Z</time>
      </trkpt>
      <trkpt lat="43.89253" lon="3.6203">
        <ele>290.02652482433</ele>
        <time>2015-04-11T10:56:06Z</time>
      </trkpt>
      <trkpt lat="43.89249" lon="3.61978">
        <ele>293.09584840359</ele>
        <time>2015-04-11T10:56:50Z</time>
      </trkpt>
      <trkpt lat="43.89244" lon="3.61974">
        <ele>293.09584840359</ele>
        <time>2015-04-11T10:56:50Z</time>
      </trkpt>
      <trkpt lat="43.89242" lon="3.61963">
        <ele>296.00991433292</ele>
        <time>2015-04-11T10:57:07Z</time>
      </trkpt>
      <trkpt lat="43.89242" lon="3.6196">
        <ele>296.00991433292</ele>
        <time>2015-04-11T10:57:12Z</time>
      </trkpt>
      <trkpt lat="43.89238" lon="3.6195">
        <ele>298.80630468227</ele>
        <time>2015-04-11T10:58:06Z</time>
      </trkpt>
      <trkpt lat="43.89249" lon="3.61927">
        <ele>301.80437343894</ele>
        <time>2015-04-11T10:58:26Z</time>
      </trkpt>
      <trkpt lat="43.89237" lon="3.61904">
        <ele>304.73495477828</ele>
        <time>2015-04-11T10:59:06Z</time>
      </trkpt>
      <trkpt lat="43.89234" lon="3.61898">
        <ele>304.73495477828</ele>
        <time>2015-04-11T10:59:21Z</time>
      </trkpt>
      <trkpt lat="43.89225" lon="3.61877">
        <ele>307.88631459425</ele>
        <time>2015-04-11T11:00:05Z</time>
      </trkpt>
      <trkpt lat="43.8922" lon="3.61877">
        <ele>307.88631459425</ele>
        <time>2015-04-11T11:00:12Z</time>
      </trkpt>
      <trkpt lat="43.89217" lon="3.61862">
        <ele>311.25596748918</ele>
        <time>2015-04-11T11:01:09Z</time>
      </trkpt>
      <trkpt lat="43.89207" lon="3.6186">
        <ele>314.4032882628</ele>
        <time>2015-04-11T11:01:18Z</time>
      </trkpt>
      <trkpt lat="43.89201" lon="3.61873">
        <ele>317.20669557745</ele>
        <time>2015-04-11T11:01:47Z</time>
      </trkpt>
      <trkpt lat="43.89199" lon="3.61882">
        <ele>317.20669557745</ele>
        <time>2015-04-11T11:01:47Z</time>
      </trkpt>
      <trkpt lat="43.89186" lon="3.619">
        <ele>319.75182183201</ele>
        <time>2015-04-11T11:02:07Z</time>
      </trkpt>
      <trkpt lat="43.89186" lon="3.61898">
        <ele>319.75182183201</ele>
        <time>2015-04-11T11:02:17Z</time>
      </trkpt>
      <trkpt lat="43.8919" lon="3.61874">
        <ele>322.70817145624</ele>
        <time>2015-04-11T11:02:55Z</time>
      </trkpt>
      <trkpt lat="43.8919" lon="3.61858">
        <ele>325.9373848806</ele>
        <time>2015-04-11T11:03:08Z</time>
      </trkpt>
      <trkpt lat="43.89186" lon="3.61844">
        <ele>329.08452906195</ele>
        <time>2015-04-11T11:04:00Z</time>
      </trkpt>
      <trkpt lat="43.89191" lon="3.61819">
        <ele>332.56107689021</ele>
        <time>2015-04-11T11:04:09Z</time>
      </trkpt>
      <trkpt lat="43.8919" lon="3.61819">
        <ele>332.56107689021</ele>
        <time>2015-04-11T11:04:10Z</time>
      </trkpt>
      <trkpt lat="43.89186" lon="3.61816">
        <ele>332.56107689021</ele>
        <time>2015-04-11T11:04:20Z</time>
      </trkpt>
      <trkpt lat="43.89186" lon="3.61809">
        <ele>335.94734743311</ele>
        <time>2015-04-11T11:04:25Z</time>
      </trkpt>
      <trkpt lat="43.89189" lon="3.61774">
        <ele>339.92345642027</ele>
        <time>2015-04-11T11:06:07Z</time>
      </trkpt>
      <trkpt lat="43.89184" lon="3.61713">
        <ele>345.38033828901</ele>
        <time>2015-04-11T11:07:09Z</time>
      </trkpt>
      <trkpt lat="43.89187" lon="3.61707">
        <ele>345.38033828901</ele>
        <time>2015-04-11T11:08:12Z</time>
      </trkpt>
      <trkpt lat="43.89187" lon="3.61704">
        <ele>345.38033828901</ele>
        <time>2015-04-11T11:08:21Z</time>
      </trkpt>
      <trkpt lat="43.89186" lon="3.617">
        <ele>351.75584053883</ele>
        <time>2015-04-11T11:08:23Z</time>
      </trkpt>
      <trkpt lat="43.89181" lon="3.61667">
        <ele>357.41525577248</ele>
        <time>2015-04-11T11:09:00Z</time>
      </trkpt>
      <trkpt lat="43.89182" lon="3.61655">
        <ele>357.41525577248</ele>
        <time>2015-04-11T11:09:14Z</time>
      </trkpt>
      <trkpt lat="43.89193" lon="3.61622">
        <ele>362.37947383039</ele>
        <time>2015-04-11T11:09:30Z</time>
      </trkpt>
      <trkpt lat="43.89188" lon="3.61582">
        <ele>366.86261732582</ele>
        <time>2015-04-11T11:10:08Z</time>
      </trkpt>
      <trkpt lat="43.89186" lon="3.61579">
        <ele>366.86261732582</ele>
        <time>2015-04-11T11:10:10Z</time>
      </trkpt>
      <trkpt lat="43.8918" lon="3.61573">
        <ele>370.76667729597</ele>
        <time>2015-04-11T11:10:15Z</time>
      </trkpt>
      <trkpt lat="43.89179" lon="3.61567">
        <ele>370.76667729597</ele>
        <time>2015-04-11T11:10:20Z</time>
      </trkpt>
      <trkpt lat="43.89179" lon="3.61566">
        <ele>370.76667729597</ele>
        <time>2015-04-11T11:10:25Z</time>
      </trkpt>
      <trkpt lat="43.89178" lon="3.61557">
        <ele>374.44591833573</ele>
        <time>2015-04-11T11:11:05Z</time>
      </trkpt>
      <trkpt lat="43.89176" lon="3.61552">
        <ele>374.44591833573</ele>
        <time>2015-04-11T11:11:10Z</time>
      </trkpt>
      <trkpt lat="43.89173" lon="3.6155">
        <ele>374.44591833573</ele>
        <time>2015-04-11T11:11:17Z</time>
      </trkpt>
      <trkpt lat="43.89174" lon="3.6155">
        <ele>374.44591833573</ele>
        <time>2015-04-11T11:11:27Z</time>
      </trkpt>
      <trkpt lat="43.8917" lon="3.61536">
        <ele>377.54891645321</ele>
        <time>2015-04-11T11:12:07Z</time>
      </trkpt>
      <trkpt lat="43.89161" lon="3.61524">
        <ele>380.12187856552</ele>
        <time>2015-04-11T11:12:30Z</time>
      </trkpt>
      <trkpt lat="43.89155" lon="3.61512">
        <ele>382.28169891582</ele>
        <time>2015-04-11T11:12:46Z</time>
      </trkpt>
      <trkpt lat="43.89153" lon="3.61489">
        <ele>384.04893641817</ele>
        <time>2015-04-11T11:12:54Z</time>
      </trkpt>
      <trkpt lat="43.89161" lon="3.61461">
        <ele>385.54551021566</ele>
        <time>2015-04-11T11:13:10Z</time>
      </trkpt>
      <trkpt lat="43.89162" lon="3.61455">
        <ele>385.54551021566</ele>
        <time>2015-04-11T11:13:22Z</time>
      </trkpt>
      <trkpt lat="43.89159" lon="3.61452">
        <ele>385.54551021566</ele>
        <time>2015-04-11T11:13:22Z</time>
      </trkpt>
      <trkpt lat="43.89156" lon="3.61397">
        <ele>387.20454600594</ele>
        <time>2015-04-11T11:14:16Z</time>
      </trkpt>
      <trkpt lat="43.89149" lon="3.61349">
        <ele>388.90059589849</ele>
        <time>2015-04-11T11:14:40Z</time>
      </trkpt>
      <trkpt lat="43.8914" lon="3.61309">
        <ele>390.56175496225</ele>
        <time>2015-04-11T11:15:07Z</time>
      </trkpt>
      <trkpt lat="43.89154" lon="3.61245">
        <ele>392.6150543292</ele>
        <time>2015-04-11T11:16:00Z</time>
      </trkpt>
      <trkpt lat="43.89155" lon="3.61239">
        <ele>392.6150543292</ele>
        <time>2015-04-11T11:16:00Z</time>
      </trkpt>
      <trkpt lat="43.89151" lon="3.61225">
        <ele>394.56953097324</ele>
        <time>2015-04-11T11:16:10Z</time>
      </trkpt>
      <trkpt lat="43.89149" lon="3.61217">
        <ele>394.56953097324</ele>
        <time>2015-04-11T11:16:25Z</time>
      </trkpt>
      <trkpt lat="43.8915" lon="3.61201">
        <ele>396.56607996399</ele>
        <time>2015-04-11T11:16:33Z</time>
      </trkpt>
      <trkpt lat="43.89149" lon="3.61178">
        <ele>398.38757599515</ele>
        <time>2015-04-11T11:16:44Z</time>
      </trkpt>
      <trkpt lat="43.8915" lon="3.61152">
        <ele>400.15188120832</ele>
        <time>2015-04-11T11:17:01Z</time>
      </trkpt>
      <trkpt lat="43.8915" lon="3.61151">
        <ele>400.15188120832</ele>
        <time>2015-04-11T11:17:06Z</time>
      </trkpt>
      <trkpt lat="43.89152" lon="3.6114">
        <ele>401.70804870488</ele>
        <time>2015-04-11T11:17:17Z</time>
      </trkpt>
      <trkpt lat="43.89157" lon="3.61111">
        <ele>403.29237968152</ele>
        <time>2015-04-11T11:17:51Z</time>
      </trkpt>
      <trkpt lat="43.89159" lon="3.61078">
        <ele>405.25317277534</ele>
        <time>2015-04-11T11:18:01Z</time>
      </trkpt>
      <trkpt lat="43.8916" lon="3.61077">
        <ele>405.25317277534</ele>
        <time>2015-04-11T11:18:05Z</time>
      </trkpt>
      <trkpt lat="43.89159" lon="3.61069">
        <ele>405.25317277534</ele>
        <time>2015-04-11T11:18:25Z</time>
      </trkpt>
      <trkpt lat="43.89159" lon="3.61066">
        <ele>405.25317277534</ele>
        <time>2015-04-11T11:18:30Z</time>
      </trkpt>
      <trkpt lat="43.89159" lon="3.61066">
        <ele>407.21924972077</ele>
        <time>2015-04-11T11:18:35Z</time>
      </trkpt>
      <trkpt lat="43.89159" lon="3.61059">
        <ele>407.21924972077</ele>
        <time>2015-04-11T11:18:48Z</time>
      </trkpt>
      <trkpt lat="43.89164" lon="3.61054">
        <ele>408.99131527772</ele>
        <time>2015-04-11T11:18:57Z</time>
      </trkpt>
      <trkpt lat="43.89182" lon="3.61024">
        <ele>410.61605688659</ele>
        <time>2015-04-11T11:19:08Z</time>
      </trkpt>
      <trkpt lat="43.89182" lon="3.61021">
        <ele>410.61605688659</ele>
        <time>2015-04-11T11:19:10Z</time>
      </trkpt>
      <trkpt lat="43.89184" lon="3.61015">
        <ele>410.61605688659</ele>
        <time>2015-04-11T11:19:22Z</time>
      </trkpt>
      <trkpt lat="43.89214" lon="3.60929">
        <ele>412.72819386337</ele>
        <time>2015-04-11T11:20:08Z</time>
      </trkpt>
      <trkpt lat="43.89214" lon="3.60928">
        <ele>412.72819386337</ele>
        <time>2015-04-11T11:20:14Z</time>
      </trkpt>
      <trkpt lat="43.89216" lon="3.60922">
        <ele>412.72819386337</ele>
        <time>2015-04-11T11:20:21Z</time>
      </trkpt>
      <trkpt lat="43.89221" lon="3.60912">
        <ele>414.58776030971</ele>
        <time>2015-04-11T11:20:46Z</time>
      </trkpt>
      <trkpt lat="43.89237" lon="3.60876">
        <ele>416.850785103</ele>
        <time>2015-04-11T11:20:57Z</time>
      </trkpt>
      <trkpt lat="43.89245" lon="3.60857">
        <ele>419.15787075868</ele>
        <time>2015-04-11T11:21:12Z</time>
      </trkpt>
      <trkpt lat="43.89245" lon="3.60854">
        <ele>419.15787075868</ele>
        <time>2015-04-11T11:21:21Z</time>
      </trkpt>
      <trkpt lat="43.89241" lon="3.60851">
        <ele>419.15787075868</ele>
        <time>2015-04-11T11:21:21Z</time>
      </trkpt>
      <trkpt lat="43.89235" lon="3.60826">
        <ele>421.92557310783</ele>
        <time>2015-04-11T11:22:10Z</time>
      </trkpt>
      <trkpt lat="43.89241" lon="3.60825">
        <ele>421.92557310783</ele>
        <time>2015-04-11T11:22:17Z</time>
      </trkpt>
      <trkpt lat="43.89244" lon="3.60825">
        <ele>424.3273505728</ele>
        <time>2015-04-11T11:22:20Z</time>
      </trkpt>
      <trkpt lat="43.89247" lon="3.60824">
        <ele>424.3273505728</ele>
        <time>2015-04-11T11:22:25Z</time>
      </trkpt>
      <trkpt lat="43.89236" lon="3.60795">
        <ele>427.16994743342</ele>
        <time>2015-04-11T11:23:12Z</time>
      </trkpt>
      <trkpt lat="43.89247" lon="3.60743">
        <ele>430.76703450838</ele>
        <time>2015-04-11T11:24:01Z</time>
      </trkpt>
      <trkpt lat="43.89245" lon="3.60735">
        <ele>430.76703450838</ele>
        <time>2015-04-11T11:24:09Z</time>
      </trkpt>
      <trkpt lat="43.89243" lon="3.6073">
        <ele>434.00825179665</ele>
        <time>2015-04-11T11:24:23Z</time>
      </trkpt>
      <trkpt lat="43.89237" lon="3.60726">
        <ele>434.00825179665</ele>
        <time>2015-04-11T11:24:38Z</time>
      </trkpt>
      <trkpt lat="43.89233" lon="3.60715">
        <ele>437.30777024575</ele>
        <time>2015-04-11T11:25:05Z</time>
      </trkpt>
      <trkpt lat="43.89233" lon="3.60715">
        <ele>437.30777024575</ele>
        <time>2015-04-11T11:25:10Z</time>
      </trkpt>
      <trkpt lat="43.89235" lon="3.60713">
        <ele>437.30777024575</ele>
        <time>2015-04-11T11:25:35Z</time>
      </trkpt>
      <trkpt lat="43.89234" lon="3.6071">
        <ele>437.30777024575</ele>
        <time>2015-04-11T11:25:40Z</time>
      </trkpt>
      <trkpt lat="43.89232" lon="3.60707">
        <ele>437.30777024575</ele>
        <time>2015-04-11T11:25:45Z</time>
      </trkpt>
      <trkpt lat="43.8923" lon="3.60706">
        <ele>440.4290013411</ele>
        <time>2015-04-11T11:25:50Z</time>
      </trkpt>
      <trkpt lat="43.89228" lon="3.60702">
        <ele>440.4290013411</ele>
        <time>2015-04-11T11:25:55Z</time>
      </trkpt>
      <trkpt lat="43.89224" lon="3.60699">
        <ele>440.4290013411</ele>
        <time>2015-04-11T11:26:07Z</time>
      </trkpt>
      <trkpt lat="43.89225" lon="3.60696">
        <ele>443.1387471156</ele>
        <time>2015-04-11T11:26:12Z</time>
      </trkpt>
      <trkpt lat="43.89236" lon="3.60681">
        <ele>445.56822196477</ele>
        <time>2015-04-11T11:27:10Z</time>
      </trkpt>
      <trkpt lat="43.89236" lon="3.60681">
        <ele>445.56822196477</ele>
        <time>2015-04-11T11:27:18Z</time>
      </trkpt>
      <trkpt lat="43.89239" lon="3.60637">
        <ele>447.75322958163</ele>
        <time>2015-04-11T11:28:13Z</time>
      </trkpt>
      <trkpt lat="43.89239" lon="3.60636">
        <ele>447.75322958163</ele>
        <time>2015-04-11T11:28:19Z</time>
      </trkpt>
      <trkpt lat="43.8924" lon="3.60631">
        <ele>447.75322958163</ele>
        <time>2015-04-11T11:28:29Z</time>
      </trkpt>
      <trkpt lat="43.89242" lon="3.60629">
        <ele>447.75322958163</ele>
        <time>2015-04-11T11:28:30Z</time>
      </trkpt>
      <trkpt lat="43.89241" lon="3.60628">
        <ele>447.75322958163</ele>
        <time>2015-04-11T11:28:35Z</time>
      </trkpt>
      <trkpt lat="43.89245" lon="3.60626">
        <ele>449.6266375192</ele>
        <time>2015-04-11T11:29:00Z</time>
      </trkpt>
      <trkpt lat="43.89247" lon="3.60623">
        <ele>449.6266375192</ele>
        <time>2015-04-11T11:29:06Z</time>
      </trkpt>
      <trkpt lat="43.89248" lon="3.60624">
        <ele>449.6266375192</ele>
        <time>2015-04-11T11:29:10Z</time>
      </trkpt>
      <trkpt lat="43.89256" lon="3.60595">
        <ele>451.79062032226</ele>
        <time>2015-04-11T11:30:17Z</time>
      </trkpt>
      <trkpt lat="43.89256" lon="3.60589">
        <ele>451.79062032226</ele>
        <time>2015-04-11T11:30:34Z</time>
      </trkpt>
      <trkpt lat="43.8926" lon="3.60548">
        <ele>454.13870634158</ele>
        <time>2015-04-11T11:30:55Z</time>
      </trkpt>
      <trkpt lat="43.89261" lon="3.60548">
        <ele>454.13870634158</ele>
        <time>2015-04-11T11:31:00Z</time>
      </trkpt>
      <trkpt lat="43.8926" lon="3.60532">
        <ele>456.28320546678</ele>
        <time>2015-04-11T11:31:22Z</time>
      </trkpt>
      <trkpt lat="43.89261" lon="3.60527">
        <ele>456.28320546678</ele>
        <time>2015-04-11T11:31:26Z</time>
      </trkpt>
      <trkpt lat="43.89261" lon="3.6051">
        <ele>458.16838600553</ele>
        <time>2015-04-11T11:31:51Z</time>
      </trkpt>
      <trkpt lat="43.89263" lon="3.60501">
        <ele>458.16838600553</ele>
        <time>2015-04-11T11:32:10Z</time>
      </trkpt>
      <trkpt lat="43.89264" lon="3.60499">
        <ele>458.16838600553</ele>
        <time>2015-04-11T11:32:15Z</time>
      </trkpt>
      <trkpt lat="43.89265" lon="3.60497">
        <ele>459.88754540983</ele>
        <time>2015-04-11T11:32:20Z</time>
      </trkpt>
      <trkpt lat="43.89267" lon="3.60492">
        <ele>459.88754540983</ele>
        <time>2015-04-11T11:32:25Z</time>
      </trkpt>
      <trkpt lat="43.89269" lon="3.60489">
        <ele>459.88754540983</ele>
        <time>2015-04-11T11:32:30Z</time>
      </trkpt>
      <trkpt lat="43.89274" lon="3.60486">
        <ele>461.58522928239</ele>
        <time>2015-04-11T11:32:41Z</time>
      </trkpt>
      <trkpt lat="43.89279" lon="3.60482">
        <ele>461.58522928239</ele>
        <time>2015-04-11T11:33:00Z</time>
      </trkpt>
      <trkpt lat="43.89281" lon="3.60478">
        <ele>463.39535055048</ele>
        <time>2015-04-11T11:33:00Z</time>
      </trkpt>
      <trkpt lat="43.89286" lon="3.6047">
        <ele>463.39535055048</ele>
        <time>2015-04-11T11:33:08Z</time>
      </trkpt>
      <trkpt lat="43.89287" lon="3.60468">
        <ele>465.2541064118</ele>
        <time>2015-04-11T11:33:10Z</time>
      </trkpt>
      <trkpt lat="43.89291" lon="3.60464">
        <ele>465.2541064118</ele>
        <time>2015-04-11T11:33:15Z</time>
      </trkpt>
      <trkpt lat="43.89295" lon="3.60461">
        <ele>465.2541064118</ele>
        <time>2015-04-11T11:33:20Z</time>
      </trkpt>
      <trkpt lat="43.89298" lon="3.60456">
        <ele>466.95799104283</ele>
        <time>2015-04-11T11:33:25Z</time>
      </trkpt>
      <trkpt lat="43.89301" lon="3.60451">
        <ele>466.95799104283</ele>
        <time>2015-04-11T11:33:30Z</time>
      </trkpt>
      <trkpt lat="43.89308" lon="3.60446">
        <ele>468.46307211872</ele>
        <time>2015-04-11T11:33:37Z</time>
      </trkpt>
      <trkpt lat="43.89317" lon="3.60414">
        <ele>469.85892775533</ele>
        <time>2015-04-11T11:34:01Z</time>
      </trkpt>
      <trkpt lat="43.89313" lon="3.60393">
        <ele>471.19994029117</ele>
        <time>2015-04-11T11:34:07Z</time>
      </trkpt>
      <trkpt lat="43.89314" lon="3.6039">
        <ele>471.19994029117</ele>
        <time>2015-04-11T11:34:10Z</time>
      </trkpt>
      <trkpt lat="43.89314" lon="3.60389">
        <ele>471.19994029117</ele>
        <time>2015-04-11T11:34:15Z</time>
      </trkpt>
      <trkpt lat="43.89316" lon="3.60385">
        <ele>471.19994029117</ele>
        <time>2015-04-11T11:34:20Z</time>
      </trkpt>
      <trkpt lat="43.89319" lon="3.6038">
        <ele>472.53657038785</ele>
        <time>2015-04-11T11:34:25Z</time>
      </trkpt>
      <trkpt lat="43.89322" lon="3.60375">
        <ele>472.53657038785</ele>
        <time>2015-04-11T11:34:30Z</time>
      </trkpt>
      <trkpt lat="43.89326" lon="3.60369">
        <ele>473.68482299619</ele>
        <time>2015-04-11T11:34:35Z</time>
      </trkpt>
      <trkpt lat="43.89335" lon="3.6036">
        <ele>474.6765396555</ele>
        <time>2015-04-11T11:34:42Z</time>
      </trkpt>
      <trkpt lat="43.89354" lon="3.60343">
        <ele>475.67131609743</ele>
        <time>2015-04-11T11:35:02Z</time>
      </trkpt>
      <trkpt lat="43.89357" lon="3.6034">
        <ele>475.67131609743</ele>
        <time>2015-04-11T11:35:05Z</time>
      </trkpt>
      <trkpt lat="43.89358" lon="3.6033">
        <ele>476.55742292355</ele>
        <time>2015-04-11T11:35:10Z</time>
      </trkpt>
      <trkpt lat="43.89365" lon="3.60313">
        <ele>477.43337634378</ele>
        <time>2015-04-11T11:35:21Z</time>
      </trkpt>
      <trkpt lat="43.89365" lon="3.60312">
        <ele>477.43337634378</ele>
        <time>2015-04-11T11:35:25Z</time>
      </trkpt>
      <trkpt lat="43.89365" lon="3.60311">
        <ele>477.43337634378</ele>
        <time>2015-04-11T11:35:30Z</time>
      </trkpt>
      <trkpt lat="43.8937" lon="3.60305">
        <ele>477.43337634378</ele>
        <time>2015-04-11T11:35:40Z</time>
      </trkpt>
      <trkpt lat="43.89372" lon="3.603">
        <ele>478.39037207878</ele>
        <time>2015-04-11T11:35:45Z</time>
      </trkpt>
      <trkpt lat="43.89374" lon="3.60291">
        <ele>478.39037207878</ele>
        <time>2015-04-11T11:35:54Z</time>
      </trkpt>
      <trkpt lat="43.89374" lon="3.6029">
        <ele>478.39037207878</ele>
        <time>2015-04-11T11:36:00Z</time>
      </trkpt>
      <trkpt lat="43.89362" lon="3.60288">
        <ele>479.18105025151</ele>
        <time>2015-04-11T11:36:09Z</time>
      </trkpt>
      <trkpt lat="43.89357" lon="3.60281">
        <ele>479.18105025151</ele>
        <time>2015-04-11T11:36:15Z</time>
      </trkpt>
      <trkpt lat="43.89355" lon="3.60259">
        <ele>479.66309354558</ele>
        <time>2015-04-11T11:37:05Z</time>
      </trkpt>
      <trkpt lat="43.89357" lon="3.60249">
        <ele>479.66309354558</ele>
        <time>2015-04-11T11:37:13Z</time>
      </trkpt>
      <trkpt lat="43.89357" lon="3.60245">
        <ele>479.92160124076</ele>
        <time>2015-04-11T11:37:24Z</time>
      </trkpt>
      <trkpt lat="43.89363" lon="3.60225">
        <ele>479.90620712846</ele>
        <time>2015-04-11T11:37:30Z</time>
      </trkpt>
      <trkpt lat="43.89366" lon="3.6022">
        <ele>479.90620712846</ele>
        <time>2015-04-11T11:37:35Z</time>
      </trkpt>
      <trkpt lat="43.89367" lon="3.60214">
        <ele>479.90620712846</ele>
        <time>2015-04-11T11:37:40Z</time>
      </trkpt>
      <trkpt lat="43.89368" lon="3.6021">
        <ele>479.57089120499</ele>
        <time>2015-04-11T11:37:45Z</time>
      </trkpt>
      <trkpt lat="43.89371" lon="3.60205">
        <ele>479.57089120499</ele>
        <time>2015-04-11T11:37:50Z</time>
      </trkpt>
      <trkpt lat="43.89374" lon="3.602">
        <ele>479.57089120499</ele>
        <time>2015-04-11T11:37:55Z</time>
      </trkpt>
      <trkpt lat="43.89375" lon="3.60192">
        <ele>479.16202101872</ele>
        <time>2015-04-11T11:38:00Z</time>
      </trkpt>
      <trkpt lat="43.89377" lon="3.60186">
        <ele>479.16202101872</ele>
        <time>2015-04-11T11:38:10Z</time>
      </trkpt>
      <trkpt lat="43.89387" lon="3.60162">
        <ele>478.41791210165</ele>
        <time>2015-04-11T11:38:25Z</time>
      </trkpt>
      <trkpt lat="43.89389" lon="3.60156">
        <ele>478.41791210165</ele>
        <time>2015-04-11T11:38:35Z</time>
      </trkpt>
      <trkpt lat="43.89391" lon="3.60153">
        <ele>478.41791210165</ele>
        <time>2015-04-11T11:38:35Z</time>
      </trkpt>
      <trkpt lat="43.89394" lon="3.60125">
        <ele>477.34190212762</ele>
        <time>2015-04-11T11:39:01Z</time>
      </trkpt>
      <trkpt lat="43.89393" lon="3.6012">
        <ele>477.34190212762</ele>
        <time>2015-04-11T11:39:05Z</time>
      </trkpt>
      <trkpt lat="43.89384" lon="3.60117">
        <ele>476.0099066584</ele>
        <time>2015-04-11T11:39:36Z</time>
      </trkpt>
      <trkpt lat="43.89366" lon="3.60131">
        <ele>474.36310019657</ele>
        <time>2015-04-11T11:39:50Z</time>
      </trkpt>
      <trkpt lat="43.89356" lon="3.60144">
        <ele>472.60707767108</ele>
        <time>2015-04-11T11:40:02Z</time>
      </trkpt>
      <trkpt lat="43.89354" lon="3.60149">
        <ele>472.60707767108</ele>
        <time>2015-04-11T11:40:07Z</time>
      </trkpt>
      <trkpt lat="43.89335" lon="3.60173">
        <ele>470.39921239342</ele>
        <time>2015-04-11T11:40:33Z</time>
      </trkpt>
      <trkpt lat="43.89314" lon="3.60189">
        <ele>467.9995512988</ele>
        <time>2015-04-11T11:40:57Z</time>
      </trkpt>
      <trkpt lat="43.89306" lon="3.60207">
        <ele>465.51964035228</ele>
        <time>2015-04-11T11:41:05Z</time>
      </trkpt>
      <trkpt lat="43.89304" lon="3.60212">
        <ele>465.51964035228</ele>
        <time>2015-04-11T11:41:39Z</time>
      </trkpt>
      <trkpt lat="43.89313" lon="3.60206">
        <ele>463.04839844706</ele>
        <time>2015-04-11T11:42:37Z</time>
      </trkpt>
      <trkpt lat="43.8932" lon="3.60219">
        <ele>458.90975169121</ele>
        <time>2015-04-11T11:43:24Z</time>
      </trkpt>
      <trkpt lat="43.89321" lon="3.60202">
        <ele>454.65356616929</ele>
        <time>2015-04-11T11:44:01Z</time>
      </trkpt>
      <trkpt lat="43.89325" lon="3.60199">
        <ele>454.65356616929</ele>
        <time>2015-04-11T11:44:05Z</time>
      </trkpt>
      <trkpt lat="43.89368" lon="3.60158">
        <ele>450.2171145897</ele>
        <time>2015-04-11T11:45:02Z</time>
      </trkpt>
      <trkpt lat="43.89374" lon="3.60149">
        <ele>450.2171145897</ele>
        <time>2015-04-11T11:45:33Z</time>
      </trkpt>
      <trkpt lat="43.8939" lon="3.6012">
        <ele>446.16214985377</ele>
        <time>2015-04-11T11:45:58Z</time>
      </trkpt>
      <trkpt lat="43.89395" lon="3.60111">
        <ele>446.16214985377</ele>
        <time>2015-04-11T11:46:02Z</time>
      </trkpt>
      <trkpt lat="43.89397" lon="3.60115">
        <ele>442.8204051455</ele>
        <time>2015-04-11T11:46:07Z</time>
      </trkpt>
      <trkpt lat="43.89397" lon="3.60153">
        <ele>440.55453886611</ele>
        <time>2015-04-11T11:47:05Z</time>
      </trkpt>
      <trkpt lat="43.89396" lon="3.60163">
        <ele>440.55453886611</ele>
        <time>2015-04-11T11:47:25Z</time>
      </trkpt>
      <trkpt lat="43.89394" lon="3.60166">
        <ele>438.99103456625</ele>
        <time>2015-04-11T11:47:34Z</time>
      </trkpt>
      <trkpt lat="43.89387" lon="3.6018">
        <ele>437.79589485912</ele>
        <time>2015-04-11T11:47:56Z</time>
      </trkpt>
      <trkpt lat="43.89386" lon="3.60185">
        <ele>437.79589485912</ele>
        <time>2015-04-11T11:48:01Z</time>
      </trkpt>
      <trkpt lat="43.89381" lon="3.60199">
        <ele>437.04738108634</ele>
        <time>2015-04-11T11:48:17Z</time>
      </trkpt>
      <trkpt lat="43.89376" lon="3.60207">
        <ele>437.04738108634</ele>
        <time>2015-04-11T11:48:17Z</time>
      </trkpt>
      <trkpt lat="43.89374" lon="3.60219">
        <ele>436.54259723651</ele>
        <time>2015-04-11T11:48:42Z</time>
      </trkpt>
      <trkpt lat="43.89357" lon="3.60253">
        <ele>436.5104792998</ele>
        <time>2015-04-11T11:49:10Z</time>
      </trkpt>
      <trkpt lat="43.89355" lon="3.60262">
        <ele>436.5104792998</ele>
        <time>2015-04-11T11:49:16Z</time>
      </trkpt>
      <trkpt lat="43.89355" lon="3.60265">
        <ele>436.70035079192</ele>
        <time>2015-04-11T11:49:24Z</time>
      </trkpt>
      <trkpt lat="43.89363" lon="3.60284">
        <ele>437.23933409575</ele>
        <time>2015-04-11T11:50:02Z</time>
      </trkpt>
      <trkpt lat="43.89363" lon="3.60286">
        <ele>437.23933409575</ele>
        <time>2015-04-11T11:50:05Z</time>
      </trkpt>
      <trkpt lat="43.89363" lon="3.6029">
        <ele>437.23933409575</ele>
        <time>2015-04-11T11:50:21Z</time>
      </trkpt>
      <trkpt lat="43.89369" lon="3.6029">
        <ele>438.18633168546</ele>
        <time>2015-04-11T11:50:36Z</time>
      </trkpt>
      <trkpt lat="43.89372" lon="3.60311">
        <ele>439.66660164409</ele>
        <time>2015-04-11T11:51:00Z</time>
      </trkpt>
      <trkpt lat="43.89384" lon="3.60306">
        <ele>441.24686562718</ele>
        <time>2015-04-11T11:51:18Z</time>
      </trkpt>
      <trkpt lat="43.89392" lon="3.60294">
        <ele>442.89991907342</ele>
        <time>2015-04-11T11:51:27Z</time>
      </trkpt>
      <trkpt lat="43.89411" lon="3.60264">
        <ele>444.88843678979</ele>
        <time>2015-04-11T11:52:01Z</time>
      </trkpt>
      <trkpt lat="43.89422" lon="3.60255">
        <ele>447.28180382069</ele>
        <time>2015-04-11T11:52:07Z</time>
      </trkpt>
      <trkpt lat="43.89457" lon="3.60207">
        <ele>451.98775305411</ele>
        <time>2015-04-11T11:53:05Z</time>
      </trkpt>
      <trkpt lat="43.89461" lon="3.60202">
        <ele>451.98775305411</ele>
        <time>2015-04-11T11:53:12Z</time>
      </trkpt>
      <trkpt lat="43.89464" lon="3.60201">
        <ele>451.98775305411</ele>
        <time>2015-04-11T11:53:15Z</time>
      </trkpt>
      <trkpt lat="43.89466" lon="3.60195">
        <ele>457.13566038983</ele>
        <time>2015-04-11T11:53:20Z</time>
      </trkpt>
      <trkpt lat="43.89499" lon="3.60166">
        <ele>463.34014132733</ele>
        <time>2015-04-11T11:54:01Z</time>
      </trkpt>
      <trkpt lat="43.89506" lon="3.60161">
        <ele>463.34014132733</ele>
        <time>2015-04-11T11:54:14Z</time>
      </trkpt>
      <trkpt lat="43.89512" lon="3.60155">
        <ele>469.4239645695</ele>
        <time>2015-04-11T11:54:14Z</time>
      </trkpt>
      <trkpt lat="43.89521" lon="3.60137">
        <ele>475.4209015245</ele>
        <time>2015-04-11T11:54:43Z</time>
      </trkpt>
      <trkpt lat="43.89579" lon="3.60097">
        <ele>481.7517333078</ele>
        <time>2015-04-11T11:56:05Z</time>
      </trkpt>
      <trkpt lat="43.89604" lon="3.6008">
        <ele>488.08501283583</ele>
        <time>2015-04-11T11:56:52Z</time>
      </trkpt>
      <trkpt lat="43.89614" lon="3.60078">
        <ele>493.79681433034</ele>
        <time>2015-04-11T11:57:01Z</time>
      </trkpt>
      <trkpt lat="43.89617" lon="3.60077">
        <ele>493.79681433034</ele>
        <time>2015-04-11T11:57:07Z</time>
      </trkpt>
      <trkpt lat="43.89618" lon="3.60077">
        <ele>493.79681433034</ele>
        <time>2015-04-11T11:57:16Z</time>
      </trkpt>
      <trkpt lat="43.89642" lon="3.60067">
        <ele>499.60806844337</ele>
        <time>2015-04-11T11:57:41Z</time>
      </trkpt>
      <trkpt lat="43.89655" lon="3.60061">
        <ele>505.14914889106</ele>
        <time>2015-04-11T11:58:01Z</time>
      </trkpt>
      <trkpt lat="43.89653" lon="3.60064">
        <ele>505.14914889106</ele>
        <time>2015-04-11T11:58:14Z</time>
      </trkpt>
      <trkpt lat="43.89655" lon="3.60079">
        <ele>510.61187836431</ele>
        <time>2015-04-11T11:58:25Z</time>
      </trkpt>
      <trkpt lat="43.89673" lon="3.60089">
        <ele>516.46277605435</ele>
        <time>2015-04-11T11:59:01Z</time>
      </trkpt>
      <trkpt lat="43.89676" lon="3.60088">
        <ele>516.46277605435</ele>
        <time>2015-04-11T11:59:05Z</time>
      </trkpt>
      <trkpt lat="43.89678" lon="3.60086">
        <ele>516.46277605435</ele>
        <time>2015-04-11T11:59:13Z</time>
      </trkpt>
      <trkpt lat="43.89681" lon="3.60086">
        <ele>516.46277605435</ele>
        <time>2015-04-11T11:59:15Z</time>
      </trkpt>
      <trkpt lat="43.89686" lon="3.60088">
        <ele>522.48486147515</ele>
        <time>2015-04-11T11:59:20Z</time>
      </trkpt>
      <trkpt lat="43.89685" lon="3.60087">
        <ele>522.48486147515</ele>
        <time>2015-04-11T11:59:42Z</time>
      </trkpt>
      <trkpt lat="43.89677" lon="3.60071">
        <ele>528.4914089013</ele>
        <time>2015-04-11T12:00:03Z</time>
      </trkpt>
      <trkpt lat="43.89678" lon="3.60071">
        <ele>528.4914089013</ele>
        <time>2015-04-11T12:00:15Z</time>
      </trkpt>
      <trkpt lat="43.89701" lon="3.60069">
        <ele>534.30985378297</ele>
        <time>2015-04-11T12:00:50Z</time>
      </trkpt>
      <trkpt lat="43.89701" lon="3.60069">
        <ele>534.30985378297</ele>
        <time>2015-04-11T12:00:52Z</time>
      </trkpt>
      <trkpt lat="43.8971" lon="3.6003">
        <ele>540.60268818081</ele>
        <time>2015-04-11T12:01:57Z</time>
      </trkpt>
      <trkpt lat="43.89714" lon="3.60029">
        <ele>540.60268818081</ele>
        <time>2015-04-11T12:02:01Z</time>
      </trkpt>
      <trkpt lat="43.89718" lon="3.60031">
        <ele>540.60268818081</ele>
        <time>2015-04-11T12:02:05Z</time>
      </trkpt>
      <trkpt lat="43.89722" lon="3.60033">
        <ele>547.13257692322</ele>
        <time>2015-04-11T12:02:12Z</time>
      </trkpt>
      <trkpt lat="43.89725" lon="3.60031">
        <ele>547.13257692322</ele>
        <time>2015-04-11T12:02:15Z</time>
      </trkpt>
      <trkpt lat="43.89726" lon="3.60029">
        <ele>547.13257692322</ele>
        <time>2015-04-11T12:02:20Z</time>
      </trkpt>
      <trkpt lat="43.8974" lon="3.60012">
        <ele>553.76586408849</ele>
        <time>2015-04-11T12:03:07Z</time>
      </trkpt>
      <trkpt lat="43.89743" lon="3.6001">
        <ele>553.76586408849</ele>
        <time>2015-04-11T12:03:11Z</time>
      </trkpt>
      <trkpt lat="43.89764" lon="3.59995">
        <ele>560.22035329254</ele>
        <time>2015-04-11T12:03:50Z</time>
      </trkpt>
      <trkpt lat="43.89773" lon="3.59991">
        <ele>566.30759891941</ele>
        <time>2015-04-11T12:04:10Z</time>
      </trkpt>
      <trkpt lat="43.89778" lon="3.59989">
        <ele>566.30759891941</ele>
        <time>2015-04-11T12:04:53Z</time>
      </trkpt>
      <trkpt lat="43.89805" lon="3.59952">
        <ele>572.64711168015</ele>
        <time>2015-04-11T12:05:05Z</time>
      </trkpt>
      <trkpt lat="43.89811" lon="3.59933">
        <ele>578.99122635459</ele>
        <time>2015-04-11T12:06:10Z</time>
      </trkpt>
      <trkpt lat="43.89818" lon="3.59922">
        <ele>584.82271320828</ele>
        <time>2015-04-11T12:06:27Z</time>
      </trkpt>
      <trkpt lat="43.89829" lon="3.5992">
        <ele>590.0101188844</ele>
        <time>2015-04-11T12:06:35Z</time>
      </trkpt>
      <trkpt lat="43.89844" lon="3.59916">
        <ele>594.88066873262</ele>
        <time>2015-04-11T12:06:52Z</time>
      </trkpt>
      <trkpt lat="43.89845" lon="3.5991">
        <ele>594.88066873262</ele>
        <time>2015-04-11T12:07:02Z</time>
      </trkpt>
      <trkpt lat="43.89853" lon="3.59896">
        <ele>599.68125623649</ele>
        <time>2015-04-11T12:07:06Z</time>
      </trkpt>
      <trkpt lat="43.89845" lon="3.59857">
        <ele>604.00719358712</ele>
        <time>2015-04-11T12:08:01Z</time>
      </trkpt>
      <trkpt lat="43.89845" lon="3.59835">
        <ele>608.52288623095</ele>
        <time>2015-04-11T12:08:05Z</time>
      </trkpt>
      <trkpt lat="43.89846" lon="3.59821">
        <ele>612.53240353674</ele>
        <time>2015-04-11T12:08:22Z</time>
      </trkpt>
      <trkpt lat="43.89848" lon="3.59786">
        <ele>616.40153169385</ele>
        <time>2015-04-11T12:08:40Z</time>
      </trkpt>
      <trkpt lat="43.89852" lon="3.59755">
        <ele>620.1240883531</ele>
        <time>2015-04-11T12:09:01Z</time>
      </trkpt>
      <trkpt lat="43.89855" lon="3.59737">
        <ele>623.42129781528</ele>
        <time>2015-04-11T12:09:33Z</time>
      </trkpt>
      <trkpt lat="43.8988" lon="3.59672">
        <ele>626.84340850209</ele>
        <time>2015-04-11T12:10:07Z</time>
      </trkpt>
      <trkpt lat="43.89882" lon="3.59668">
        <ele>626.84340850209</ele>
        <time>2015-04-11T12:10:14Z</time>
      </trkpt>
      <trkpt lat="43.89895" lon="3.59648">
        <ele>629.84819046404</ele>
        <time>2015-04-11T12:10:53Z</time>
      </trkpt>
      <trkpt lat="43.89903" lon="3.59636">
        <ele>632.84259717902</ele>
        <time>2015-04-11T12:10:56Z</time>
      </trkpt>
      <trkpt lat="43.89909" lon="3.59626">
        <ele>635.36812566073</ele>
        <time>2015-04-11T12:11:05Z</time>
      </trkpt>
      <trkpt lat="43.89912" lon="3.59617">
        <ele>635.36812566073</ele>
        <time>2015-04-11T12:11:28Z</time>
      </trkpt>
      <trkpt lat="43.89927" lon="3.59611">
        <ele>637.40500849832</ele>
        <time>2015-04-11T12:11:36Z</time>
      </trkpt>
      <trkpt lat="43.89943" lon="3.59601">
        <ele>639.22472307349</ele>
        <time>2015-04-11T12:11:46Z</time>
      </trkpt>
      <trkpt lat="43.89949" lon="3.59595">
        <ele>639.22472307349</ele>
        <time>2015-04-11T12:12:02Z</time>
      </trkpt>
      <trkpt lat="43.89972" lon="3.5958">
        <ele>640.64724959056</ele>
        <time>2015-04-11T12:12:25Z</time>
      </trkpt>
      <trkpt lat="43.89971" lon="3.59578">
        <ele>640.64724959056</ele>
        <time>2015-04-11T12:12:30Z</time>
      </trkpt>
      <trkpt lat="43.89977" lon="3.59576">
        <ele>640.64724959056</ele>
        <time>2015-04-11T12:13:25Z</time>
      </trkpt>
      <trkpt lat="43.89984" lon="3.59573">
        <ele>641.65115681613</ele>
        <time>2015-04-11T12:13:30Z</time>
      </trkpt>
      <trkpt lat="43.89991" lon="3.59569">
        <ele>641.65115681613</ele>
        <time>2015-04-11T12:13:35Z</time>
      </trkpt>
      <trkpt lat="43.89996" lon="3.59563">
        <ele>642.30433571789</ele>
        <time>2015-04-11T12:13:42Z</time>
      </trkpt>
      <trkpt lat="43.9001" lon="3.59555">
        <ele>642.52663622884</ele>
        <time>2015-04-11T12:14:00Z</time>
      </trkpt>
      <trkpt lat="43.90019" lon="3.59551">
        <ele>642.43238889804</ele>
        <time>2015-04-11T12:14:15Z</time>
      </trkpt>
      <trkpt lat="43.9005" lon="3.59526">
        <ele>642.15724079733</ele>
        <time>2015-04-11T12:14:35Z</time>
      </trkpt>
      <trkpt lat="43.90055" lon="3.59522">
        <ele>642.15724079733</ele>
        <time>2015-04-11T12:14:40Z</time>
      </trkpt>
      <trkpt lat="43.90061" lon="3.59521">
        <ele>641.69765224288</ele>
        <time>2015-04-11T12:14:45Z</time>
      </trkpt>
      <trkpt lat="43.90078" lon="3.59521">
        <ele>640.9787417937</ele>
        <time>2015-04-11T12:15:06Z</time>
      </trkpt>
      <trkpt lat="43.90104" lon="3.59513">
        <ele>640.14792660023</ele>
        <time>2015-04-11T12:15:45Z</time>
      </trkpt>
      <trkpt lat="43.90119" lon="3.59522">
        <ele>638.98170188537</ele>
        <time>2015-04-11T12:16:00Z</time>
      </trkpt>
      <trkpt lat="43.90119" lon="3.59523">
        <ele>638.98170188537</ele>
        <time>2015-04-11T12:16:00Z</time>
      </trkpt>
      <trkpt lat="43.90129" lon="3.5953">
        <ele>637.66286325684</ele>
        <time>2015-04-11T12:16:14Z</time>
      </trkpt>
      <trkpt lat="43.90132" lon="3.59532">
        <ele>637.66286325684</ele>
        <time>2015-04-11T12:16:14Z</time>
      </trkpt>
      <trkpt lat="43.90237" lon="3.59539">
        <ele>635.712515719</ele>
        <time>2015-04-11T12:17:42Z</time>
      </trkpt>
      <trkpt lat="43.90252" lon="3.59536">
        <ele>633.56757363415</ele>
        <time>2015-04-11T12:18:08Z</time>
      </trkpt>
      <trkpt lat="43.90285" lon="3.59538">
        <ele>632.02225352302</ele>
        <time>2015-04-11T12:19:36Z</time>
      </trkpt>
      <trkpt lat="43.90306" lon="3.59547">
        <ele>630.39818189534</ele>
        <time>2015-04-11T12:19:57Z</time>
      </trkpt>
      <trkpt lat="43.90309" lon="3.59548">
        <ele>630.39818189534</ele>
        <time>2015-04-11T12:20:07Z</time>
      </trkpt>
      <trkpt lat="43.90343" lon="3.59554">
        <ele>629.03228573279</ele>
        <time>2015-04-11T12:20:40Z</time>
      </trkpt>
      <trkpt lat="43.9035" lon="3.59555">
        <ele>629.03228573279</ele>
        <time>2015-04-11T12:21:22Z</time>
      </trkpt>
      <trkpt lat="43.90353" lon="3.59557">
        <ele>627.78895447238</ele>
        <time>2015-04-11T12:21:22Z</time>
      </trkpt>
      <trkpt lat="43.90394" lon="3.59579">
        <ele>626.9453740079</ele>
        <time>2015-04-11T12:22:04Z</time>
      </trkpt>
      <trkpt lat="43.90416" lon="3.59596">
        <ele>626.38221366652</ele>
        <time>2015-04-11T12:22:21Z</time>
      </trkpt>
      <trkpt lat="43.90451" lon="3.59608">
        <ele>626.14629346379</ele>
        <time>2015-04-11T12:23:08Z</time>
      </trkpt>
      <trkpt lat="43.9045" lon="3.59607">
        <ele>626.14629346379</ele>
        <time>2015-04-11T12:23:20Z</time>
      </trkpt>
      <trkpt lat="43.90458" lon="3.59624">
        <ele>626.5679453228</ele>
        <time>2015-04-11T12:24:30Z</time>
      </trkpt>
      <trkpt lat="43.90485" lon="3.59637">
        <ele>627.01431643827</ele>
        <time>2015-04-11T12:24:57Z</time>
      </trkpt>
      <trkpt lat="43.90492" lon="3.59643">
        <ele>627.01431643827</ele>
        <time>2015-04-11T12:24:57Z</time>
      </trkpt>
      <trkpt lat="43.90533" lon="3.59672">
        <ele>627.67682829769</ele>
        <time>2015-04-11T12:25:40Z</time>
      </trkpt>
      <trkpt lat="43.90558" lon="3.59686">
        <ele>628.48690799077</ele>
        <time>2015-04-11T12:26:06Z</time>
      </trkpt>
      <trkpt lat="43.90576" lon="3.59694">
        <ele>629.27940122732</ele>
        <time>2015-04-11T12:26:22Z</time>
      </trkpt>
      <trkpt lat="43.90585" lon="3.59697">
        <ele>630.03071962153</ele>
        <time>2015-04-11T12:26:34Z</time>
      </trkpt>
      <trkpt lat="43.90596" lon="3.59703">
        <ele>630.67558578154</ele>
        <time>2015-04-11T12:26:34Z</time>
      </trkpt>
      <trkpt lat="43.90601" lon="3.59705">
        <ele>630.67558578154</ele>
        <time>2015-04-11T12:26:35Z</time>
      </trkpt>
      <trkpt lat="43.90606" lon="3.59709">
        <ele>631.28322387789</ele>
        <time>2015-04-11T12:26:40Z</time>
      </trkpt>
      <trkpt lat="43.90609" lon="3.59715">
        <ele>631.28322387789</ele>
        <time>2015-04-11T12:26:45Z</time>
      </trkpt>
      <trkpt lat="43.9062" lon="3.59722">
        <ele>631.97524081211</ele>
        <time>2015-04-11T12:27:03Z</time>
      </trkpt>
      <trkpt lat="43.90624" lon="3.59733">
        <ele>632.74851491882</ele>
        <time>2015-04-11T12:27:12Z</time>
      </trkpt>
      <trkpt lat="43.90633" lon="3.59751">
        <ele>633.61407870407</ele>
        <time>2015-04-11T12:27:24Z</time>
      </trkpt>
      <trkpt lat="43.90638" lon="3.59755">
        <ele>633.61407870407</ele>
        <time>2015-04-11T12:27:24Z</time>
      </trkpt>
      <trkpt lat="43.9064" lon="3.59757">
        <ele>633.61407870407</ele>
        <time>2015-04-11T12:27:33Z</time>
      </trkpt>
      <trkpt lat="43.90647" lon="3.59768">
        <ele>634.62488237969</ele>
        <time>2015-04-11T12:27:35Z</time>
      </trkpt>
      <trkpt lat="43.90652" lon="3.59774">
        <ele>634.62488237969</ele>
        <time>2015-04-11T12:27:43Z</time>
      </trkpt>
      <trkpt lat="43.90699" lon="3.59798">
        <ele>636.11756839391</ele>
        <time>2015-04-11T12:28:25Z</time>
      </trkpt>
      <trkpt lat="43.90712" lon="3.59803">
        <ele>637.58104540453</ele>
        <time>2015-04-11T12:28:36Z</time>
      </trkpt>
      <trkpt lat="43.90742" lon="3.59823">
        <ele>639.23337882025</ele>
        <time>2015-04-11T12:29:22Z</time>
      </trkpt>
      <trkpt lat="43.90778" lon="3.59852">
        <ele>640.91562043311</ele>
        <time>2015-04-11T12:29:40Z</time>
      </trkpt>
      <trkpt lat="43.90797" lon="3.59882">
        <ele>642.63876645933</ele>
        <time>2015-04-11T12:30:12Z</time>
      </trkpt>
      <trkpt lat="43.90802" lon="3.59893">
        <ele>642.63876645933</ele>
        <time>2015-04-11T12:30:12Z</time>
      </trkpt>
      <trkpt lat="43.90805" lon="3.59898">
        <ele>644.28303663462</ele>
        <time>2015-04-11T12:30:18Z</time>
      </trkpt>
      <trkpt lat="43.90805" lon="3.599">
        <ele>644.28303663462</ele>
        <time>2015-04-11T12:30:27Z</time>
      </trkpt>
      <trkpt lat="43.90817" lon="3.59914">
        <ele>645.93928851649</ele>
        <time>2015-04-11T12:30:35Z</time>
      </trkpt>
      <trkpt lat="43.9082" lon="3.59915">
        <ele>645.93928851649</ele>
        <time>2015-04-11T12:30:45Z</time>
      </trkpt>
      <trkpt lat="43.90867" lon="3.59988">
        <ele>648.09506079654</ele>
        <time>2015-04-11T12:31:45Z</time>
      </trkpt>
      <trkpt lat="43.90867" lon="3.59993">
        <ele>648.09506079654</ele>
        <time>2015-04-11T12:31:53Z</time>
      </trkpt>
      <trkpt lat="43.90877" lon="3.60031">
        <ele>650.30708087511</ele>
        <time>2015-04-11T12:32:18Z</time>
      </trkpt>
      <trkpt lat="43.90888" lon="3.60065">
        <ele>652.45261256233</ele>
        <time>2015-04-11T12:32:36Z</time>
      </trkpt>
      <trkpt lat="43.9089" lon="3.60068">
        <ele>652.45261256233</ele>
        <time>2015-04-11T12:32:40Z</time>
      </trkpt>
      <trkpt lat="43.90918" lon="3.60103">
        <ele>654.34599149041</ele>
        <time>2015-04-11T12:33:17Z</time>
      </trkpt>
      <trkpt lat="43.90924" lon="3.60107">
        <ele>654.34599149041</ele>
        <time>2015-04-11T12:33:17Z</time>
      </trkpt>
      <trkpt lat="43.90996" lon="3.60175">
        <ele>656.19052796486</ele>
        <time>2015-04-11T12:34:36Z</time>
      </trkpt>
      <trkpt lat="43.91" lon="3.60176">
        <ele>656.19052796486</ele>
        <time>2015-04-11T12:34:42Z</time>
      </trkpt>
      <trkpt lat="43.91019" lon="3.60186">
        <ele>657.74235285447</ele>
        <time>2015-04-11T12:35:07Z</time>
      </trkpt>
      <trkpt lat="43.91033" lon="3.60203">
        <ele>659.17980655955</ele>
        <time>2015-04-11T12:35:23Z</time>
      </trkpt>
      <trkpt lat="43.91036" lon="3.60211">
        <ele>659.17980655955</ele>
        <time>2015-04-11T12:35:23Z</time>
      </trkpt>
      <trkpt lat="43.91046" lon="3.60225">
        <ele>660.56754291525</ele>
        <time>2015-04-11T12:35:37Z</time>
      </trkpt>
      <trkpt lat="43.91049" lon="3.60228">
        <ele>660.56754291525</ele>
        <time>2015-04-11T12:35:40Z</time>
      </trkpt>
      <trkpt lat="43.91058" lon="3.60241">
        <ele>661.83588376296</ele>
        <time>2015-04-11T12:35:55Z</time>
      </trkpt>
      <trkpt lat="43.91061" lon="3.60245">
        <ele>661.83588376296</ele>
        <time>2015-04-11T12:36:22Z</time>
      </trkpt>
      <trkpt lat="43.91067" lon="3.60278">
        <ele>663.05028786606</ele>
        <time>2015-04-11T12:36:30Z</time>
      </trkpt>
      <trkpt lat="43.91071" lon="3.60285">
        <ele>663.05028786606</ele>
        <time>2015-04-11T12:36:42Z</time>
      </trkpt>
      <trkpt lat="43.91092" lon="3.60365">
        <ele>664.2571334783</ele>
        <time>2015-04-11T12:37:37Z</time>
      </trkpt>
      <trkpt lat="43.91094" lon="3.60373">
        <ele>664.2571334783</ele>
        <time>2015-04-11T12:37:42Z</time>
      </trkpt>
      <trkpt lat="43.91115" lon="3.60406">
        <ele>665.26882650762</ele>
        <time>2015-04-11T12:38:19Z</time>
      </trkpt>
      <trkpt lat="43.91124" lon="3.60417">
        <ele>666.12826120474</ele>
        <time>2015-04-11T12:38:36Z</time>
      </trkpt>
      <trkpt lat="43.91143" lon="3.60436">
        <ele>666.717080267</ele>
        <time>2015-04-11T12:38:40Z</time>
      </trkpt>
      <trkpt lat="43.91162" lon="3.60435">
        <ele>667.1569520839</ele>
        <time>2015-04-11T12:38:58Z</time>
      </trkpt>
      <trkpt lat="43.91164" lon="3.60435">
        <ele>667.1569520839</ele>
        <time>2015-04-11T12:39:00Z</time>
      </trkpt>
      <trkpt lat="43.91218" lon="3.60327">
        <ele>668.52656419065</ele>
        <time>2015-04-11T12:40:41Z</time>
      </trkpt>
      <trkpt lat="43.91219" lon="3.60326">
        <ele>668.52656419065</ele>
        <time>2015-04-11T12:40:55Z</time>
      </trkpt>
      <trkpt lat="43.91248" lon="3.60288">
        <ele>669.86283855181</ele>
        <time>2015-04-11T12:41:40Z</time>
      </trkpt>
      <trkpt lat="43.91248" lon="3.60288">
        <ele>669.86283855181</ele>
        <time>2015-04-11T12:41:47Z</time>
      </trkpt>
      <trkpt lat="43.91262" lon="3.60257">
        <ele>671.32554515572</ele>
        <time>2015-04-11T12:43:00Z</time>
      </trkpt>
      <trkpt lat="43.91267" lon="3.6024">
        <ele>672.64443907564</ele>
        <time>2015-04-11T12:43:13Z</time>
      </trkpt>
      <trkpt lat="43.91267" lon="3.60237">
        <ele>672.64443907564</ele>
        <time>2015-04-11T12:43:19Z</time>
      </trkpt>
      <trkpt lat="43.91269" lon="3.60229">
        <ele>672.64443907564</ele>
        <time>2015-04-11T12:43:23Z</time>
      </trkpt>
      <trkpt lat="43.9127" lon="3.60219">
        <ele>673.91540032533</ele>
        <time>2015-04-11T12:43:25Z</time>
      </trkpt>
      <trkpt lat="43.91273" lon="3.60202">
        <ele>674.9824168614</ele>
        <time>2015-04-11T12:43:37Z</time>
      </trkpt>
      <trkpt lat="43.91296" lon="3.60184">
        <ele>676.22031792243</ele>
        <time>2015-04-11T12:44:08Z</time>
      </trkpt>
      <trkpt lat="43.91302" lon="3.6018">
        <ele>676.22031792243</ele>
        <time>2015-04-11T12:44:08Z</time>
      </trkpt>
      <trkpt lat="43.91325" lon="3.60168">
        <ele>677.77417387823</ele>
        <time>2015-04-11T12:44:36Z</time>
      </trkpt>
      <trkpt lat="43.9133" lon="3.60167">
        <ele>677.77417387823</ele>
        <time>2015-04-11T12:44:36Z</time>
      </trkpt>
      <trkpt lat="43.91334" lon="3.60167">
        <ele>679.33078080449</ele>
        <time>2015-04-11T12:44:40Z</time>
      </trkpt>
      <trkpt lat="43.9134" lon="3.60166">
        <ele>679.33078080449</ele>
        <time>2015-04-11T12:44:45Z</time>
      </trkpt>
      <trkpt lat="43.91345" lon="3.60143">
        <ele>681.03228510154</ele>
        <time>2015-04-11T12:45:17Z</time>
      </trkpt>
      <trkpt lat="43.91323" lon="3.60114">
        <ele>682.62090517573</ele>
        <time>2015-04-11T12:45:37Z</time>
      </trkpt>
      <trkpt lat="43.91319" lon="3.6011">
        <ele>682.62090517573</ele>
        <time>2015-04-11T12:45:50Z</time>
      </trkpt>
      <trkpt lat="43.91294" lon="3.60087">
        <ele>684.30488209782</ele>
        <time>2015-04-11T12:46:12Z</time>
      </trkpt>
      <trkpt lat="43.91283" lon="3.60071">
        <ele>685.85899848922</ele>
        <time>2015-04-11T12:46:34Z</time>
      </trkpt>
      <trkpt lat="43.91246" lon="3.59985">
        <ele>687.04615487638</ele>
        <time>2015-04-11T12:47:40Z</time>
      </trkpt>
      <trkpt lat="43.91234" lon="3.59951">
        <ele>688.1665317611</ele>
        <time>2015-04-11T12:48:12Z</time>
      </trkpt>
      <trkpt lat="43.91217" lon="3.59927">
        <ele>689.29672388536</ele>
        <time>2015-04-11T12:48:25Z</time>
      </trkpt>
      <trkpt lat="43.91217" lon="3.59926">
        <ele>689.29672388536</ele>
        <time>2015-04-11T12:48:45Z</time>
      </trkpt>
      <trkpt lat="43.91214" lon="3.59913">
        <ele>690.82475002969</ele>
        <time>2015-04-11T12:48:59Z</time>
      </trkpt>
      <trkpt lat="43.91206" lon="3.59905">
        <ele>692.50377608442</ele>
        <time>2015-04-11T12:49:22Z</time>
      </trkpt>
      <trkpt lat="43.91202" lon="3.59899">
        <ele>692.50377608442</ele>
        <time>2015-04-11T12:49:28Z</time>
      </trkpt>
      <trkpt lat="43.91193" lon="3.59889">
        <ele>694.01824424352</ele>
        <time>2015-04-11T12:49:41Z</time>
      </trkpt>
      <trkpt lat="43.91189" lon="3.59884">
        <ele>694.01824424352</ele>
        <time>2015-04-11T12:49:43Z</time>
      </trkpt>
      <trkpt lat="43.91174" lon="3.59864">
        <ele>695.43655246311</ele>
        <time>2015-04-11T12:49:59Z</time>
      </trkpt>
      <trkpt lat="43.91157" lon="3.59842">
        <ele>696.89443653646</ele>
        <time>2015-04-11T12:50:21Z</time>
      </trkpt>
      <trkpt lat="43.91151" lon="3.59838">
        <ele>696.89443653646</ele>
        <time>2015-04-11T12:50:36Z</time>
      </trkpt>
      <trkpt lat="43.9115" lon="3.59837">
        <ele>696.89443653646</ele>
        <time>2015-04-11T12:50:40Z</time>
      </trkpt>
      <trkpt lat="43.91149" lon="3.5983">
        <ele>698.76257779018</ele>
        <time>2015-04-11T12:50:55Z</time>
      </trkpt>
      <trkpt lat="43.91147" lon="3.59821">
        <ele>698.76257779018</ele>
        <time>2015-04-11T12:51:00Z</time>
      </trkpt>
      <trkpt lat="43.91144" lon="3.59812">
        <ele>700.44659401189</ele>
        <time>2015-04-11T12:51:09Z</time>
      </trkpt>
      <trkpt lat="43.91137" lon="3.59793">
        <ele>702.03041305841</ele>
        <time>2015-04-11T12:51:36Z</time>
      </trkpt>
      <trkpt lat="43.91128" lon="3.59766">
        <ele>703.4047767351</ele>
        <time>2015-04-11T12:51:36Z</time>
      </trkpt>
      <trkpt lat="43.91117" lon="3.59718">
        <ele>704.78612843681</ele>
        <time>2015-04-11T12:52:11Z</time>
      </trkpt>
      <trkpt lat="43.91128" lon="3.59654">
        <ele>706.49032470615</ele>
        <time>2015-04-11T12:52:49Z</time>
      </trkpt>
      <trkpt lat="43.91141" lon="3.59631">
        <ele>708.00213450182</ele>
        <time>2015-04-11T12:53:36Z</time>
      </trkpt>
      <trkpt lat="43.91155" lon="3.59624">
        <ele>710.27145984631</ele>
        <time>2015-04-11T12:53:40Z</time>
      </trkpt>
      <trkpt lat="43.91159" lon="3.5962">
        <ele>710.27145984631</ele>
        <time>2015-04-11T12:53:52Z</time>
      </trkpt>
      <trkpt lat="43.91171" lon="3.59603">
        <ele>712.47583288027</ele>
        <time>2015-04-11T12:54:00Z</time>
      </trkpt>
      <trkpt lat="43.91202" lon="3.59554">
        <ele>715.00632521779</ele>
        <time>2015-04-11T12:54:37Z</time>
      </trkpt>
      <trkpt lat="43.91256" lon="3.5947">
        <ele>717.80649859172</ele>
        <time>2015-04-11T12:55:42Z</time>
      </trkpt>
      <trkpt lat="43.91261" lon="3.59457">
        <ele>720.2901541957</ele>
        <time>2015-04-11T12:56:08Z</time>
      </trkpt>
      <trkpt lat="43.91292" lon="3.59379">
        <ele>722.44832128398</ele>
        <time>2015-04-11T12:56:40Z</time>
      </trkpt>
      <trkpt lat="43.91324" lon="3.59348">
        <ele>723.94221621993</ele>
        <time>2015-04-11T12:57:36Z</time>
      </trkpt>
      <trkpt lat="43.91358" lon="3.59305">
        <ele>724.77692122201</ele>
        <time>2015-04-11T12:58:25Z</time>
      </trkpt>
      <trkpt lat="43.91368" lon="3.59285">
        <ele>725.23287259868</ele>
        <time>2015-04-11T12:58:37Z</time>
      </trkpt>
      <trkpt lat="43.91372" lon="3.59279">
        <ele>725.23287259868</ele>
        <time>2015-04-11T12:58:42Z</time>
      </trkpt>
      <trkpt lat="43.91422" lon="3.59207">
        <ele>724.70635926334</ele>
        <time>2015-04-11T12:59:40Z</time>
      </trkpt>
      <trkpt lat="43.91428" lon="3.5915">
        <ele>724.32692017509</ele>
        <time>2015-04-11T13:00:36Z</time>
      </trkpt>
      <trkpt lat="43.91348" lon="3.59101">
        <ele>723.81491312535</ele>
        <time>2015-04-11T13:01:37Z</time>
      </trkpt>
      <trkpt lat="43.91344" lon="3.59095">
        <ele>723.81491312535</ele>
        <time>2015-04-11T13:01:42Z</time>
      </trkpt>
      <trkpt lat="43.91343" lon="3.59094">
        <ele>723.81491312535</ele>
        <time>2015-04-11T13:01:51Z</time>
      </trkpt>
      <trkpt lat="43.9133" lon="3.59069">
        <ele>722.95485545492</ele>
        <time>2015-04-11T13:02:06Z</time>
      </trkpt>
      <trkpt lat="43.91328" lon="3.59047">
        <ele>721.95157514113</ele>
        <time>2015-04-11T13:02:14Z</time>
      </trkpt>
      <trkpt lat="43.91328" lon="3.59045">
        <ele>721.95157514113</ele>
        <time>2015-04-11T13:02:15Z</time>
      </trkpt>
      <trkpt lat="43.91327" lon="3.59036">
        <ele>721.95157514113</ele>
        <time>2015-04-11T13:02:20Z</time>
      </trkpt>
      <trkpt lat="43.91327" lon="3.5903">
        <ele>720.86553119742</ele>
        <time>2015-04-11T13:02:25Z</time>
      </trkpt>
      <trkpt lat="43.91326" lon="3.59023">
        <ele>720.86553119742</ele>
        <time>2015-04-11T13:02:40Z</time>
      </trkpt>
      <trkpt lat="43.91327" lon="3.59019">
        <ele>720.86553119742</ele>
        <time>2015-04-11T13:02:45Z</time>
      </trkpt>
      <trkpt lat="43.91326" lon="3.59019">
        <ele>719.95468756518</ele>
        <time>2015-04-11T13:02:50Z</time>
      </trkpt>
      <trkpt lat="43.91324" lon="3.59012">
        <ele>719.95468756518</ele>
        <time>2015-04-11T13:02:55Z</time>
      </trkpt>
      <trkpt lat="43.91323" lon="3.59004">
        <ele>719.1116418553</ele>
        <time>2015-04-11T13:03:00Z</time>
      </trkpt>
      <trkpt lat="43.91322" lon="3.58995">
        <ele>719.1116418553</ele>
        <time>2015-04-11T13:03:05Z</time>
      </trkpt>
      <trkpt lat="43.91322" lon="3.58994">
        <ele>719.1116418553</ele>
        <time>2015-04-11T13:03:10Z</time>
      </trkpt>
      <trkpt lat="43.91322" lon="3.58987">
        <ele>718.51042964255</ele>
        <time>2015-04-11T13:03:25Z</time>
      </trkpt>
      <trkpt lat="43.91322" lon="3.58982">
        <ele>718.51042964255</ele>
        <time>2015-04-11T13:03:30Z</time>
      </trkpt>
      <trkpt lat="43.9132" lon="3.58975">
        <ele>718.51042964255</ele>
        <time>2015-04-11T13:03:35Z</time>
      </trkpt>
      <trkpt lat="43.91319" lon="3.58967">
        <ele>717.82156006391</ele>
        <time>2015-04-11T13:03:40Z</time>
      </trkpt>
      <trkpt lat="43.9132" lon="3.58959">
        <ele>717.82156006391</ele>
        <time>2015-04-11T13:03:45Z</time>
      </trkpt>
      <trkpt lat="43.91319" lon="3.58941">
        <ele>716.99929598033</ele>
        <time>2015-04-11T13:03:52Z</time>
      </trkpt>
      <trkpt lat="43.9132" lon="3.58927">
        <ele>716.08799471081</ele>
        <time>2015-04-11T13:04:08Z</time>
      </trkpt>
      <trkpt lat="43.91318" lon="3.58912">
        <ele>715.05683385717</ele>
        <time>2015-04-11T13:04:08Z</time>
      </trkpt>
      <trkpt lat="43.9131" lon="3.5887">
        <ele>713.38748808413</ele>
        <time>2015-04-11T13:04:37Z</time>
      </trkpt>
      <trkpt lat="43.91309" lon="3.58862">
        <ele>713.38748808413</ele>
        <time>2015-04-11T13:04:49Z</time>
      </trkpt>
      <trkpt lat="43.91314" lon="3.5885">
        <ele>711.82630764106</ele>
        <time>2015-04-11T13:05:16Z</time>
      </trkpt>
      <trkpt lat="43.91334" lon="3.58823">
        <ele>710.76173435938</ele>
        <time>2015-04-11T13:05:40Z</time>
      </trkpt>
      <trkpt lat="43.91335" lon="3.58826">
        <ele>710.76173435938</ele>
        <time>2015-04-11T13:05:46Z</time>
      </trkpt>
      <trkpt lat="43.91336" lon="3.58825">
        <ele>710.76173435938</ele>
        <time>2015-04-11T13:05:50Z</time>
      </trkpt>
      <trkpt lat="43.91343" lon="3.58826">
        <ele>710.14861771291</ele>
        <time>2015-04-11T13:06:00Z</time>
      </trkpt>
      <trkpt lat="43.91345" lon="3.58828">
        <ele>710.14861771291</ele>
        <time>2015-04-11T13:06:05Z</time>
      </trkpt>
      <trkpt lat="43.91349" lon="3.5883">
        <ele>710.14861771291</ele>
        <time>2015-04-11T13:06:10Z</time>
      </trkpt>
      <trkpt lat="43.91351" lon="3.58831">
        <ele>710.14861771291</ele>
        <time>2015-04-11T13:06:15Z</time>
      </trkpt>
      <trkpt lat="43.91353" lon="3.58831">
        <ele>710.49132217106</ele>
        <time>2015-04-11T13:07:00Z</time>
      </trkpt>
      <trkpt lat="43.91356" lon="3.58834">
        <ele>710.49132217106</ele>
        <time>2015-04-11T13:07:05Z</time>
      </trkpt>
      <trkpt lat="43.9136" lon="3.58836">
        <ele>710.49132217106</ele>
        <time>2015-04-11T13:07:10Z</time>
      </trkpt>
      <trkpt lat="43.91364" lon="3.58837">
        <ele>711.14466710186</ele>
        <time>2015-04-11T13:07:15Z</time>
      </trkpt>
      <trkpt lat="43.91368" lon="3.5884">
        <ele>711.14466710186</ele>
        <time>2015-04-11T13:07:20Z</time>
      </trkpt>
      <trkpt lat="43.91373" lon="3.58843">
        <ele>711.97099828992</ele>
        <time>2015-04-11T13:07:25Z</time>
      </trkpt>
      <trkpt lat="43.91379" lon="3.58853">
        <ele>713.00066685377</ele>
        <time>2015-04-11T13:07:36Z</time>
      </trkpt>
      <trkpt lat="43.91385" lon="3.58863">
        <ele>713.97286892149</ele>
        <time>2015-04-11T13:07:42Z</time>
      </trkpt>
      <trkpt lat="43.91386" lon="3.58863">
        <ele>713.97286892149</ele>
        <time>2015-04-11T13:07:51Z</time>
      </trkpt>
      <trkpt lat="43.91394" lon="3.58869">
        <ele>715.10715536362</ele>
        <time>2015-04-11T13:07:55Z</time>
      </trkpt>
      <trkpt lat="43.91419" lon="3.58899">
        <ele>716.99548719236</ele>
        <time>2015-04-11T13:08:40Z</time>
      </trkpt>
      <trkpt lat="43.91424" lon="3.58901">
        <ele>716.99548719236</ele>
        <time>2015-04-11T13:08:45Z</time>
      </trkpt>
      <trkpt lat="43.91432" lon="3.58912">
        <ele>719.23299893363</ele>
        <time>2015-04-11T13:09:00Z</time>
      </trkpt>
      <trkpt lat="43.91445" lon="3.58922">
        <ele>721.78937802114</ele>
        <time>2015-04-11T13:09:33Z</time>
      </trkpt>
      <trkpt lat="43.91445" lon="3.58924">
        <ele>721.78937802114</ele>
        <time>2015-04-11T13:09:35Z</time>
      </trkpt>
      <trkpt lat="43.91454" lon="3.58946">
        <ele>723.94385295207</ele>
        <time>2015-04-11T13:10:30Z</time>
      </trkpt>
      <trkpt lat="43.91456" lon="3.58955">
        <ele>723.94385295207</ele>
        <time>2015-04-11T13:10:37Z</time>
      </trkpt>
      <trkpt lat="43.91457" lon="3.58961">
        <ele>725.93758823796</ele>
        <time>2015-04-11T13:10:42Z</time>
      </trkpt>
      <trkpt lat="43.91457" lon="3.58963">
        <ele>725.93758823796</ele>
        <time>2015-04-11T13:10:52Z</time>
      </trkpt>
      <trkpt lat="43.91461" lon="3.58983">
        <ele>727.80711663902</ele>
        <time>2015-04-11T13:11:04Z</time>
      </trkpt>
      <trkpt lat="43.91465" lon="3.58989">
        <ele>727.80711663902</ele>
        <time>2015-04-11T13:11:05Z</time>
      </trkpt>
      <trkpt lat="43.91465" lon="3.58991">
        <ele>727.80711663902</ele>
        <time>2015-04-11T13:11:10Z</time>
      </trkpt>
      <trkpt lat="43.91473" lon="3.59012">
        <ele>729.91808423222</ele>
        <time>2015-04-11T13:11:37Z</time>
      </trkpt>
      <trkpt lat="43.91475" lon="3.59015">
        <ele>729.91808423222</ele>
        <time>2015-04-11T13:11:40Z</time>
      </trkpt>
      <trkpt lat="43.91477" lon="3.59016">
        <ele>729.91808423222</ele>
        <time>2015-04-11T13:11:46Z</time>
      </trkpt>
      <trkpt lat="43.91478" lon="3.59017">
        <ele>729.91808423222</ele>
        <time>2015-04-11T13:11:50Z</time>
      </trkpt>
      <trkpt lat="43.91482" lon="3.59015">
        <ele>732.10421684862</ele>
        <time>2015-04-11T13:12:09Z</time>
      </trkpt>
      <trkpt lat="43.91484" lon="3.59009">
        <ele>732.10421684862</ele>
        <time>2015-04-11T13:12:12Z</time>
      </trkpt>
      <trkpt lat="43.91488" lon="3.59005">
        <ele>734.2112625236</ele>
        <time>2015-04-11T13:12:15Z</time>
      </trkpt>
      <trkpt lat="43.91492" lon="3.59003">
        <ele>734.2112625236</ele>
        <time>2015-04-11T13:12:20Z</time>
      </trkpt>
      <trkpt lat="43.91495" lon="3.59002">
        <ele>734.2112625236</ele>
        <time>2015-04-11T13:12:25Z</time>
      </trkpt>
      <trkpt lat="43.91497" lon="3.59">
        <ele>736.3559529723</ele>
        <time>2015-04-11T13:12:30Z</time>
      </trkpt>
      <trkpt lat="43.91498" lon="3.59002">
        <ele>736.3559529723</ele>
        <time>2015-04-11T13:12:35Z</time>
      </trkpt>
      <trkpt lat="43.91498" lon="3.59002">
        <ele>736.3559529723</ele>
        <time>2015-04-11T13:12:40Z</time>
      </trkpt>
      <trkpt lat="43.91504" lon="3.59006">
        <ele>736.3559529723</ele>
        <time>2015-04-11T13:12:55Z</time>
      </trkpt>
      <trkpt lat="43.91508" lon="3.59009">
        <ele>738.77608142132</ele>
        <time>2015-04-11T13:13:00Z</time>
      </trkpt>
      <trkpt lat="43.91512" lon="3.59014">
        <ele>738.77608142132</ele>
        <time>2015-04-11T13:13:05Z</time>
      </trkpt>
      <trkpt lat="43.91514" lon="3.59018">
        <ele>738.77608142132</ele>
        <time>2015-04-11T13:13:13Z</time>
      </trkpt>
      <trkpt lat="43.91522" lon="3.59024">
        <ele>741.18686429804</ele>
        <time>2015-04-11T13:13:25Z</time>
      </trkpt>
      <trkpt lat="43.91527" lon="3.59022">
        <ele>741.18686429804</ele>
        <time>2015-04-11T13:13:32Z</time>
      </trkpt>
      <trkpt lat="43.91529" lon="3.59021">
        <ele>741.18686429804</ele>
        <time>2015-04-11T13:13:37Z</time>
      </trkpt>
      <trkpt lat="43.91531" lon="3.59023">
        <ele>743.62716143194</ele>
        <time>2015-04-11T13:13:42Z</time>
      </trkpt>
      <trkpt lat="43.91534" lon="3.59023">
        <ele>743.62716143194</ele>
        <time>2015-04-11T13:13:55Z</time>
      </trkpt>
      <trkpt lat="43.91542" lon="3.59028">
        <ele>746.26266953001</ele>
        <time>2015-04-11T13:14:10Z</time>
      </trkpt>
      <trkpt lat="43.91551" lon="3.59028">
        <ele>746.26266953001</ele>
        <time>2015-04-11T13:14:35Z</time>
      </trkpt>
      <trkpt lat="43.91554" lon="3.59027">
        <ele>749.64996270188</ele>
        <time>2015-04-11T13:14:40Z</time>
      </trkpt>
      <trkpt lat="43.91558" lon="3.59021">
        <ele>749.64996270188</ele>
        <time>2015-04-11T13:14:47Z</time>
      </trkpt>
      <trkpt lat="43.91562" lon="3.5902">
        <ele>752.78955035506</ele>
        <time>2015-04-11T13:15:00Z</time>
      </trkpt>
      <trkpt lat="43.91568" lon="3.59016">
        <ele>752.78955035506</ele>
        <time>2015-04-11T13:15:17Z</time>
      </trkpt>
      <trkpt lat="43.91576" lon="3.59015">
        <ele>756.26933561714</ele>
        <time>2015-04-11T13:15:34Z</time>
      </trkpt>
      <trkpt lat="43.91581" lon="3.59017">
        <ele>756.26933561714</ele>
        <time>2015-04-11T13:15:37Z</time>
      </trkpt>
      <trkpt lat="43.91584" lon="3.59018">
        <ele>756.26933561714</ele>
        <time>2015-04-11T13:15:43Z</time>
      </trkpt>
      <trkpt lat="43.91596" lon="3.59022">
        <ele>760.20087001219</ele>
        <time>2015-04-11T13:16:00Z</time>
      </trkpt>
      <trkpt lat="43.91597" lon="3.59028">
        <ele>760.20087001219</ele>
        <time>2015-04-11T13:16:15Z</time>
      </trkpt>
      <trkpt lat="43.916" lon="3.59035">
        <ele>764.13875820541</ele>
        <time>2015-04-11T13:16:20Z</time>
      </trkpt>
      <trkpt lat="43.91604" lon="3.59043">
        <ele>764.13875820541</ele>
        <time>2015-04-11T13:16:25Z</time>
      </trkpt>
      <trkpt lat="43.91609" lon="3.59044">
        <ele>767.81456749323</ele>
        <time>2015-04-11T13:16:36Z</time>
      </trkpt>
      <trkpt lat="43.91609" lon="3.59055">
        <ele>767.81456749323</ele>
        <time>2015-04-11T13:17:00Z</time>
      </trkpt>
      <trkpt lat="43.91621" lon="3.59076">
        <ele>771.74427270274</ele>
        <time>2015-04-11T13:17:34Z</time>
      </trkpt>
      <trkpt lat="43.91624" lon="3.59082">
        <ele>771.74427270274</ele>
        <time>2015-04-11T13:17:34Z</time>
      </trkpt>
      <trkpt lat="43.91627" lon="3.59092">
        <ele>775.5839759545</ele>
        <time>2015-04-11T13:17:40Z</time>
      </trkpt>
      <trkpt lat="43.91636" lon="3.59117">
        <ele>779.41899264627</ele>
        <time>2015-04-11T13:18:45Z</time>
      </trkpt>
      <trkpt lat="43.91639" lon="3.59119">
        <ele>779.41899264627</ele>
        <time>2015-04-11T13:19:02Z</time>
      </trkpt>
      <trkpt lat="43.91645" lon="3.59116">
        <ele>782.95389071724</ele>
        <time>2015-04-11T13:19:20Z</time>
      </trkpt>
      <trkpt lat="43.91648" lon="3.59114">
        <ele>782.95389071724</ele>
        <time>2015-04-11T13:19:25Z</time>
      </trkpt>
      <trkpt lat="43.9165" lon="3.59115">
        <ele>782.95389071724</ele>
        <time>2015-04-11T13:19:30Z</time>
      </trkpt>
      <trkpt lat="43.9165" lon="3.59114">
        <ele>782.95389071724</ele>
        <time>2015-04-11T13:19:36Z</time>
      </trkpt>
      <trkpt lat="43.91651" lon="3.59111">
        <ele>782.95389071724</ele>
        <time>2015-04-11T13:19:40Z</time>
      </trkpt>
      <trkpt lat="43.91649" lon="3.59096">
        <ele>786.21861807401</ele>
        <time>2015-04-11T13:19:54Z</time>
      </trkpt>
      <trkpt lat="43.91652" lon="3.59094">
        <ele>786.21861807401</ele>
        <time>2015-04-11T13:20:00Z</time>
      </trkpt>
      <trkpt lat="43.91658" lon="3.59067">
        <ele>789.29953150542</ele>
        <time>2015-04-11T13:20:40Z</time>
      </trkpt>
      <trkpt lat="43.9168" lon="3.59078">
        <ele>792.79616890339</ele>
        <time>2015-04-11T13:21:44Z</time>
      </trkpt>
      <trkpt lat="43.91685" lon="3.5908">
        <ele>792.79616890339</ele>
        <time>2015-04-11T13:21:45Z</time>
      </trkpt>
      <trkpt lat="43.91721" lon="3.59096">
        <ele>796.48487015289</ele>
        <time>2015-04-11T13:22:42Z</time>
      </trkpt>
      <trkpt lat="43.91725" lon="3.59096">
        <ele>796.48487015289</ele>
        <time>2015-04-11T13:22:46Z</time>
      </trkpt>
      <trkpt lat="43.91757" lon="3.59111">
        <ele>800.63364505401</ele>
        <time>2015-04-11T13:23:40Z</time>
      </trkpt>
      <trkpt lat="43.9176" lon="3.59117">
        <ele>800.63364505401</ele>
        <time>2015-04-11T13:24:05Z</time>
      </trkpt>
      <trkpt lat="43.91764" lon="3.5912">
        <ele>804.68271665683</ele>
        <time>2015-04-11T13:24:10Z</time>
      </trkpt>
      <trkpt lat="43.9177" lon="3.59123">
        <ele>804.68271665683</ele>
        <time>2015-04-11T13:24:16Z</time>
      </trkpt>
      <trkpt lat="43.91781" lon="3.59136">
        <ele>808.43097018405</ele>
        <time>2015-04-11T13:24:38Z</time>
      </trkpt>
      <trkpt lat="43.91782" lon="3.59141">
        <ele>808.43097018405</ele>
        <time>2015-04-11T13:24:42Z</time>
      </trkpt>
      <trkpt lat="43.91784" lon="3.59145">
        <ele>808.43097018405</ele>
        <time>2015-04-11T13:24:53Z</time>
      </trkpt>
      <trkpt lat="43.91802" lon="3.59164">
        <ele>812.4280953791</ele>
        <time>2015-04-11T13:25:40Z</time>
      </trkpt>
      <trkpt lat="43.91806" lon="3.5917">
        <ele>812.4280953791</ele>
        <time>2015-04-11T13:25:47Z</time>
      </trkpt>
      <trkpt lat="43.91808" lon="3.59171">
        <ele>812.4280953791</ele>
        <time>2015-04-11T13:25:50Z</time>
      </trkpt>
      <trkpt lat="43.91812" lon="3.59174">
        <ele>816.10209169229</ele>
        <time>2015-04-11T13:25:55Z</time>
      </trkpt>
      <trkpt lat="43.91854" lon="3.59184">
        <ele>819.99052851159</ele>
        <time>2015-04-11T13:26:39Z</time>
      </trkpt>
      <trkpt lat="43.91856" lon="3.59184">
        <ele>819.99052851159</ele>
        <time>2015-04-11T13:26:41Z</time>
      </trkpt>
      <trkpt lat="43.91857" lon="3.59185">
        <ele>819.99052851159</ele>
        <time>2015-04-11T13:26:50Z</time>
      </trkpt>
      <trkpt lat="43.91869" lon="3.59211">
        <ele>823.78408294642</ele>
        <time>2015-04-11T13:27:08Z</time>
      </trkpt>
      <trkpt lat="43.91881" lon="3.59228">
        <ele>827.34075179829</ele>
        <time>2015-04-11T13:27:18Z</time>
      </trkpt>
      <trkpt lat="43.91894" lon="3.59267">
        <ele>830.78924471996</ele>
        <time>2015-04-11T13:27:43Z</time>
      </trkpt>
      <trkpt lat="43.91896" lon="3.59278">
        <ele>830.78924471996</ele>
        <time>2015-04-11T13:27:47Z</time>
      </trkpt>
      <trkpt lat="43.91911" lon="3.59325">
        <ele>834.55196674476</ele>
        <time>2015-04-11T13:28:25Z</time>
      </trkpt>
      <trkpt lat="43.91919" lon="3.59348">
        <ele>837.98202006098</ele>
        <time>2015-04-11T13:28:39Z</time>
      </trkpt>
      <trkpt lat="43.91919" lon="3.59349">
        <ele>837.98202006098</ele>
        <time>2015-04-11T13:28:40Z</time>
      </trkpt>
      <trkpt lat="43.91923" lon="3.59352">
        <ele>837.98202006098</ele>
        <time>2015-04-11T13:28:55Z</time>
      </trkpt>
      <trkpt lat="43.91921" lon="3.59368">
        <ele>841.05760823252</ele>
        <time>2015-04-11T13:28:55Z</time>
      </trkpt>
      <trkpt lat="43.9192" lon="3.59413">
        <ele>843.93265936708</ele>
        <time>2015-04-11T13:29:32Z</time>
      </trkpt>
      <trkpt lat="43.91922" lon="3.59443">
        <ele>846.51996550003</ele>
        <time>2015-04-11T13:29:40Z</time>
      </trkpt>
      <trkpt lat="43.91922" lon="3.5946">
        <ele>848.79735198998</ele>
        <time>2015-04-11T13:29:57Z</time>
      </trkpt>
      <trkpt lat="43.91921" lon="3.59474">
        <ele>850.80294908885</ele>
        <time>2015-04-11T13:30:00Z</time>
      </trkpt>
      <trkpt lat="43.91918" lon="3.59512">
        <ele>853.01974088092</ele>
        <time>2015-04-11T13:30:21Z</time>
      </trkpt>
      <trkpt lat="43.91916" lon="3.59517">
        <ele>853.01974088092</ele>
        <time>2015-04-11T13:30:31Z</time>
      </trkpt>
      <trkpt lat="43.919" lon="3.59532">
        <ele>855.15980504559</ele>
        <time>2015-04-11T13:30:40Z</time>
      </trkpt>
      <trkpt lat="43.91877" lon="3.59543">
        <ele>857.27374742316</ele>
        <time>2015-04-11T13:31:03Z</time>
      </trkpt>
      <trkpt lat="43.91874" lon="3.59544">
        <ele>857.27374742316</ele>
        <time>2015-04-11T13:31:06Z</time>
      </trkpt>
      <trkpt lat="43.9187" lon="3.59542">
        <ele>857.27374742316</ele>
        <time>2015-04-11T13:31:12Z</time>
      </trkpt>
      <trkpt lat="43.91853" lon="3.59564">
        <ele>859.10599912247</ele>
        <time>2015-04-11T13:31:32Z</time>
      </trkpt>
      <trkpt lat="43.91858" lon="3.59566">
        <ele>859.10599912247</ele>
        <time>2015-04-11T13:31:38Z</time>
      </trkpt>
      <trkpt lat="43.91859" lon="3.59566">
        <ele>859.10599912247</ele>
        <time>2015-04-11T13:31:40Z</time>
      </trkpt>
      <trkpt lat="43.91862" lon="3.59569">
        <ele>860.79533280643</ele>
        <time>2015-04-11T13:31:45Z</time>
      </trkpt>
      <trkpt lat="43.91862" lon="3.5957">
        <ele>860.79533280643</ele>
        <time>2015-04-11T13:31:50Z</time>
      </trkpt>
      <trkpt lat="43.9187" lon="3.59575">
        <ele>861.79347793388</ele>
        <time>2015-04-11T13:32:10Z</time>
      </trkpt>
      <trkpt lat="43.91875" lon="3.59575">
        <ele>861.79347793388</ele>
        <time>2015-04-11T13:32:15Z</time>
      </trkpt>
      <trkpt lat="43.91878" lon="3.59569">
        <ele>862.77614595626</ele>
        <time>2015-04-11T13:32:20Z</time>
      </trkpt>
      <trkpt lat="43.91882" lon="3.59567">
        <ele>862.77614595626</ele>
        <time>2015-04-11T13:32:35Z</time>
      </trkpt>
      <trkpt lat="43.919" lon="3.59569">
        <ele>863.95157042935</ele>
        <time>2015-04-11T13:32:43Z</time>
      </trkpt>
      <trkpt lat="43.91902" lon="3.5957">
        <ele>863.95157042935</ele>
        <time>2015-04-11T13:32:45Z</time>
      </trkpt>
      <trkpt lat="43.91908" lon="3.5957">
        <ele>863.95157042935</ele>
        <time>2015-04-11T13:32:59Z</time>
      </trkpt>
      <trkpt lat="43.91929" lon="3.5958">
        <ele>865.33923535112</ele>
        <time>2015-04-11T13:33:11Z</time>
      </trkpt>
      <trkpt lat="43.9196" lon="3.59603">
        <ele>867.23041524059</ele>
        <time>2015-04-11T13:33:38Z</time>
      </trkpt>
      <trkpt lat="43.9196" lon="3.59605">
        <ele>867.23041524059</ele>
        <time>2015-04-11T13:33:40Z</time>
      </trkpt>
      <trkpt lat="43.91971" lon="3.59614">
        <ele>869.17301280956</ele>
        <time>2015-04-11T13:33:57Z</time>
      </trkpt>
      <trkpt lat="43.91974" lon="3.59621">
        <ele>869.17301280956</ele>
        <time>2015-04-11T13:34:00Z</time>
      </trkpt>
      <trkpt lat="43.91981" lon="3.59643">
        <ele>871.18031450342</ele>
        <time>2015-04-11T13:34:21Z</time>
      </trkpt>
      <trkpt lat="43.9198" lon="3.59646">
        <ele>871.18031450342</ele>
        <time>2015-04-11T13:34:40Z</time>
      </trkpt>
      <trkpt lat="43.91979" lon="3.59645">
        <ele>871.18031450342</ele>
        <time>2015-04-11T13:34:47Z</time>
      </trkpt>
      <trkpt lat="43.91979" lon="3.59645">
        <ele>871.18031450342</ele>
        <time>2015-04-11T13:34:50Z</time>
      </trkpt>
      <trkpt lat="43.9198" lon="3.59645">
        <ele>871.18031450342</ele>
        <time>2015-04-11T13:34:58Z</time>
      </trkpt>
      <trkpt lat="43.91984" lon="3.59652">
        <ele>873.06266962433</ele>
        <time>2015-04-11T13:35:05Z</time>
      </trkpt>
      <trkpt lat="43.91989" lon="3.59682">
        <ele>874.68791228893</ele>
        <time>2015-04-11T13:35:38Z</time>
      </trkpt>
      <trkpt lat="43.91987" lon="3.59682">
        <ele>874.68791228893</ele>
        <time>2015-04-11T13:35:38Z</time>
      </trkpt>
      <trkpt lat="43.91986" lon="3.59683">
        <ele>874.68791228893</ele>
        <time>2015-04-11T13:35:40Z</time>
      </trkpt>
      <trkpt lat="43.91983" lon="3.59681">
        <ele>874.68791228893</ele>
        <time>2015-04-11T13:35:48Z</time>
      </trkpt>
      <trkpt lat="43.91977" lon="3.59688">
        <ele>876.74129282408</ele>
        <time>2015-04-11T13:36:05Z</time>
      </trkpt>
      <trkpt lat="43.91974" lon="3.59697">
        <ele>876.74129282408</ele>
        <time>2015-04-11T13:36:10Z</time>
      </trkpt>
      <trkpt lat="43.91969" lon="3.59702">
        <ele>878.47301291576</ele>
        <time>2015-04-11T13:36:15Z</time>
      </trkpt>
      <trkpt lat="43.91963" lon="3.59706">
        <ele>878.47301291576</ele>
        <time>2015-04-11T13:36:20Z</time>
      </trkpt>
      <trkpt lat="43.91951" lon="3.59705">
        <ele>879.83770812032</ele>
        <time>2015-04-11T13:36:27Z</time>
      </trkpt>
      <trkpt lat="43.91941" lon="3.59717">
        <ele>880.82314294738</ele>
        <time>2015-04-11T13:36:40Z</time>
      </trkpt>
      <trkpt lat="43.91932" lon="3.5973">
        <ele>881.46221456874</ele>
        <time>2015-04-11T13:36:52Z</time>
      </trkpt>
      <trkpt lat="43.91931" lon="3.59731">
        <ele>881.46221456874</ele>
        <time>2015-04-11T13:37:00Z</time>
      </trkpt>
      <trkpt lat="43.91916" lon="3.59745">
        <ele>881.69983466288</ele>
        <time>2015-04-11T13:37:18Z</time>
      </trkpt>
      <trkpt lat="43.91904" lon="3.59763">
        <ele>881.63011275886</ele>
        <time>2015-04-11T13:37:29Z</time>
      </trkpt>
      <trkpt lat="43.91894" lon="3.59777">
        <ele>881.25454018729</ele>
        <time>2015-04-11T13:37:35Z</time>
      </trkpt>
      <trkpt lat="43.91884" lon="3.59776">
        <ele>880.83464117913</ele>
        <time>2015-04-11T13:37:42Z</time>
      </trkpt>
      <trkpt lat="43.91878" lon="3.59775">
        <ele>880.83464117913</ele>
        <time>2015-04-11T13:38:21Z</time>
      </trkpt>
      <trkpt lat="43.91873" lon="3.59774">
        <ele>880.48302178462</ele>
        <time>2015-04-11T13:38:37Z</time>
      </trkpt>
      <trkpt lat="43.91887" lon="3.5978">
        <ele>879.71282209202</ele>
        <time>2015-04-11T13:38:40Z</time>
      </trkpt>
      <trkpt lat="43.91894" lon="3.59782">
        <ele>879.71282209202</ele>
        <time>2015-04-11T13:38:53Z</time>
      </trkpt>
      <trkpt lat="43.91909" lon="3.5979">
        <ele>878.88098174929</ele>
        <time>2015-04-11T13:38:59Z</time>
      </trkpt>
      <trkpt lat="43.9191" lon="3.5979">
        <ele>878.88098174929</ele>
        <time>2015-04-11T13:39:00Z</time>
      </trkpt>
      <trkpt lat="43.91925" lon="3.59793">
        <ele>878.00117220985</ele>
        <time>2015-04-11T13:39:35Z</time>
      </trkpt>
      <trkpt lat="43.91944" lon="3.59801">
        <ele>877.3309949502</ele>
        <time>2015-04-11T13:39:44Z</time>
      </trkpt>
      <trkpt lat="43.91945" lon="3.59801">
        <ele>877.3309949502</ele>
        <time>2015-04-11T13:39:45Z</time>
      </trkpt>
      <trkpt lat="43.91992" lon="3.59849">
        <ele>877.43979573568</ele>
        <time>2015-04-11T13:40:41Z</time>
      </trkpt>
      <trkpt lat="43.91995" lon="3.59852">
        <ele>877.43979573568</ele>
        <time>2015-04-11T13:40:53Z</time>
      </trkpt>
      <trkpt lat="43.92014" lon="3.59862">
        <ele>877.54129147284</ele>
        <time>2015-04-11T13:41:33Z</time>
      </trkpt>
      <trkpt lat="43.92042" lon="3.59875">
        <ele>877.55526645674</ele>
        <time>2015-04-11T13:41:39Z</time>
      </trkpt>
      <trkpt lat="43.92054" lon="3.59877">
        <ele>877.8541726316</ele>
        <time>2015-04-11T13:41:40Z</time>
      </trkpt>
      <trkpt lat="43.92059" lon="3.59877">
        <ele>877.8541726316</ele>
        <time>2015-04-11T13:41:50Z</time>
      </trkpt>
      <trkpt lat="43.92063" lon="3.59876">
        <ele>878.07594278485</ele>
        <time>2015-04-11T13:41:50Z</time>
      </trkpt>
      <trkpt lat="43.92093" lon="3.59874">
        <ele>878.43273198873</ele>
        <time>2015-04-11T13:42:17Z</time>
      </trkpt>
      <trkpt lat="43.921" lon="3.59874">
        <ele>878.43273198873</ele>
        <time>2015-04-11T13:42:21Z</time>
      </trkpt>
      <trkpt lat="43.92123" lon="3.59883">
        <ele>878.61613086016</ele>
        <time>2015-04-11T13:42:40Z</time>
      </trkpt>
      <trkpt lat="43.9214" lon="3.59905">
        <ele>878.67211837716</ele>
        <time>2015-04-11T13:43:23Z</time>
      </trkpt>
      <trkpt lat="43.92156" lon="3.59933">
        <ele>878.70109106133</ele>
        <time>2015-04-11T13:43:25Z</time>
      </trkpt>
      <trkpt lat="43.92161" lon="3.5995">
        <ele>878.70947516808</ele>
        <time>2015-04-11T13:43:36Z</time>
      </trkpt>
      <trkpt lat="43.92163" lon="3.59959">
        <ele>878.70947516808</ele>
        <time>2015-04-11T13:43:39Z</time>
      </trkpt>
      <trkpt lat="43.92163" lon="3.59961">
        <ele>878.70947516808</ele>
        <time>2015-04-11T13:43:40Z</time>
      </trkpt>
      <trkpt lat="43.92175" lon="3.59991">
        <ele>878.89042551187</ele>
        <time>2015-04-11T13:44:05Z</time>
      </trkpt>
      <trkpt lat="43.92186" lon="3.60044">
        <ele>878.31256782916</ele>
        <time>2015-04-11T13:44:33Z</time>
      </trkpt>
      <trkpt lat="43.92189" lon="3.6005">
        <ele>878.31256782916</ele>
        <time>2015-04-11T13:44:35Z</time>
      </trkpt>
      <trkpt lat="43.92191" lon="3.60057">
        <ele>877.84421039726</ele>
        <time>2015-04-11T13:44:40Z</time>
      </trkpt>
      <trkpt lat="43.92198" lon="3.60134">
        <ele>877.19412636541</ele>
        <time>2015-04-11T13:45:40Z</time>
      </trkpt>
      <trkpt lat="43.92192" lon="3.60148">
        <ele>876.56836118507</ele>
        <time>2015-04-11T13:46:14Z</time>
      </trkpt>
      <trkpt lat="43.92186" lon="3.6017">
        <ele>875.82610194165</ele>
        <time>2015-04-11T13:46:20Z</time>
      </trkpt>
      <trkpt lat="43.9217" lon="3.60206">
        <ele>875.21169688056</ele>
        <time>2015-04-11T13:46:40Z</time>
      </trkpt>
      <trkpt lat="43.92169" lon="3.60212">
        <ele>875.21169688056</ele>
        <time>2015-04-11T13:46:49Z</time>
      </trkpt>
      <trkpt lat="43.92169" lon="3.60219">
        <ele>874.43218683499</ele>
        <time>2015-04-11T13:47:01Z</time>
      </trkpt>
      <trkpt lat="43.92164" lon="3.6024">
        <ele>873.70637590609</ele>
        <time>2015-04-11T13:47:15Z</time>
      </trkpt>
      <trkpt lat="43.9216" lon="3.60273">
        <ele>872.68902370917</ele>
        <time>2015-04-11T13:47:25Z</time>
      </trkpt>
      <trkpt lat="43.92159" lon="3.60278">
        <ele>872.68902370917</ele>
        <time>2015-04-11T13:47:26Z</time>
      </trkpt>
      <trkpt lat="43.92155" lon="3.60298">
        <ele>871.75260484982</ele>
        <time>2015-04-11T13:47:39Z</time>
      </trkpt>
      <trkpt lat="43.92156" lon="3.60301">
        <ele>871.75260484982</ele>
        <time>2015-04-11T13:47:40Z</time>
      </trkpt>
      <trkpt lat="43.92155" lon="3.60312">
        <ele>870.93917477955</ele>
        <time>2015-04-11T13:47:47Z</time>
      </trkpt>
      <trkpt lat="43.92122" lon="3.60366">
        <ele>870.51773730289</ele>
        <time>2015-04-11T13:48:40Z</time>
      </trkpt>
      <trkpt lat="43.92119" lon="3.60369">
        <ele>870.51773730289</ele>
        <time>2015-04-11T13:48:55Z</time>
      </trkpt>
      <trkpt lat="43.92111" lon="3.60372">
        <ele>870.28949907487</ele>
        <time>2015-04-11T13:48:55Z</time>
      </trkpt>
      <trkpt lat="43.92109" lon="3.60372">
        <ele>870.28949907487</ele>
        <time>2015-04-11T13:49:15Z</time>
      </trkpt>
      <trkpt lat="43.92098" lon="3.60427">
        <ele>870.51628627464</ele>
        <time>2015-04-11T13:49:40Z</time>
      </trkpt>
      <trkpt lat="43.92096" lon="3.60439">
        <ele>870.51628627464</ele>
        <time>2015-04-11T13:49:47Z</time>
      </trkpt>
      <trkpt lat="43.92096" lon="3.60442">
        <ele>870.9924922197</ele>
        <time>2015-04-11T13:49:50Z</time>
      </trkpt>
      <trkpt lat="43.92096" lon="3.60448">
        <ele>870.9924922197</ele>
        <time>2015-04-11T13:49:55Z</time>
      </trkpt>
      <trkpt lat="43.92097" lon="3.60455">
        <ele>871.55556878618</ele>
        <time>2015-04-11T13:50:04Z</time>
      </trkpt>
      <trkpt lat="43.921" lon="3.60463">
        <ele>871.55556878618</ele>
        <time>2015-04-11T13:50:12Z</time>
      </trkpt>
      <trkpt lat="43.92106" lon="3.60503">
        <ele>872.51566548844</ele>
        <time>2015-04-11T13:50:44Z</time>
      </trkpt>
      <trkpt lat="43.92104" lon="3.60512">
        <ele>872.51566548844</ele>
        <time>2015-04-11T13:50:46Z</time>
      </trkpt>
      <trkpt lat="43.92104" lon="3.60516">
        <ele>873.52480452045</ele>
        <time>2015-04-11T13:50:51Z</time>
      </trkpt>
      <trkpt lat="43.92108" lon="3.60536">
        <ele>874.50529545581</ele>
        <time>2015-04-11T13:51:11Z</time>
      </trkpt>
      <trkpt lat="43.92109" lon="3.60548">
        <ele>874.50529545581</ele>
        <time>2015-04-11T13:51:27Z</time>
      </trkpt>
      <trkpt lat="43.92104" lon="3.60579">
        <ele>875.50041300243</ele>
        <time>2015-04-11T13:51:34Z</time>
      </trkpt>
      <trkpt lat="43.92103" lon="3.60579">
        <ele>875.50041300243</ele>
        <time>2015-04-11T13:51:36Z</time>
      </trkpt>
      <trkpt lat="43.92115" lon="3.60627">
        <ele>876.65099353184</ele>
        <time>2015-04-11T13:52:27Z</time>
      </trkpt>
      <trkpt lat="43.92115" lon="3.60626">
        <ele>876.65099353184</ele>
        <time>2015-04-11T13:52:39Z</time>
      </trkpt>
      <trkpt lat="43.92119" lon="3.60626">
        <ele>876.65099353184</ele>
        <time>2015-04-11T13:52:40Z</time>
      </trkpt>
      <trkpt lat="43.92119" lon="3.60626">
        <ele>876.65099353184</ele>
        <time>2015-04-11T13:52:47Z</time>
      </trkpt>
      <trkpt lat="43.92126" lon="3.60631">
        <ele>878.24553286969</ele>
        <time>2015-04-11T13:54:13Z</time>
      </trkpt>
      <trkpt lat="43.92135" lon="3.60632">
        <ele>879.80064480837</ele>
        <time>2015-04-11T13:57:20Z</time>
      </trkpt>
      <trkpt lat="43.92135" lon="3.60632">
        <ele>879.80064480837</ele>
        <time>2015-04-11T13:57:25Z</time>
      </trkpt>
      <trkpt lat="43.92126" lon="3.60627">
        <ele>880.96938974711</ele>
        <time>2015-04-11T13:58:15Z</time>
      </trkpt>
      <trkpt lat="43.92125" lon="3.60626">
        <ele>880.96938974711</ele>
        <time>2015-04-11T13:58:20Z</time>
      </trkpt>
      <trkpt lat="43.92117" lon="3.60628">
        <ele>882.16632809942</ele>
        <time>2015-04-11T13:59:47Z</time>
      </trkpt>
      <trkpt lat="43.92125" lon="3.60621">
        <ele>883.29989715981</ele>
        <time>2015-04-11T14:01:45Z</time>
      </trkpt>
      <trkpt lat="43.92123" lon="3.60633">
        <ele>883.29989715981</ele>
        <time>2015-04-11T14:02:32Z</time>
      </trkpt>
      <trkpt lat="43.92131" lon="3.60626">
        <ele>884.28542526809</ele>
        <time>2015-04-11T14:05:42Z</time>
      </trkpt>
      <trkpt lat="43.92112" lon="3.60627">
        <ele>885.3763283467</ele>
        <time>2015-04-11T14:17:18Z</time>
      </trkpt>
      <trkpt lat="43.92112" lon="3.60627">
        <ele>885.3763283467</ele>
        <time>2015-04-11T14:17:25Z</time>
      </trkpt>
      <trkpt lat="43.92111" lon="3.60626">
        <ele>885.3763283467</ele>
        <time>2015-04-11T14:17:25Z</time>
      </trkpt>
      <trkpt lat="43.9211" lon="3.60628">
        <ele>885.3763283467</ele>
        <time>2015-04-11T14:17:38Z</time>
      </trkpt>
      <trkpt lat="43.92111" lon="3.6063">
        <ele>885.3763283467</ele>
        <time>2015-04-11T14:17:40Z</time>
      </trkpt>
      <trkpt lat="43.92111" lon="3.60637">
        <ele>885.3763283467</ele>
        <time>2015-04-11T14:17:45Z</time>
      </trkpt>
      <trkpt lat="43.92108" lon="3.60641">
        <ele>886.36037136324</ele>
        <time>2015-04-11T14:17:50Z</time>
      </trkpt>
      <trkpt lat="43.92098" lon="3.60646">
        <ele>887.24297765161</ele>
        <time>2015-04-11T14:18:06Z</time>
      </trkpt>
      <trkpt lat="43.92092" lon="3.60648">
        <ele>887.24297765161</ele>
        <time>2015-04-11T14:18:07Z</time>
      </trkpt>
      <trkpt lat="43.9206" lon="3.60672">
        <ele>887.94300829979</ele>
        <time>2015-04-11T14:18:40Z</time>
      </trkpt>
      <trkpt lat="43.92054" lon="3.60683">
        <ele>888.55875348818</ele>
        <time>2015-04-11T14:18:56Z</time>
      </trkpt>
      <trkpt lat="43.92044" lon="3.60705">
        <ele>889.05184587376</ele>
        <time>2015-04-11T14:19:14Z</time>
      </trkpt>
      <trkpt lat="43.92042" lon="3.60716">
        <ele>889.05184587376</ele>
        <time>2015-04-11T14:19:29Z</time>
      </trkpt>
      <trkpt lat="43.92036" lon="3.60727">
        <ele>889.37269778636</ele>
        <time>2015-04-11T14:19:30Z</time>
      </trkpt>
      <trkpt lat="43.92026" lon="3.60736">
        <ele>889.60557631285</ele>
        <time>2015-04-11T14:19:41Z</time>
      </trkpt>
      <trkpt lat="43.92014" lon="3.60761">
        <ele>889.756777845</ele>
        <time>2015-04-11T14:20:02Z</time>
      </trkpt>
      <trkpt lat="43.92014" lon="3.60762">
        <ele>889.756777845</ele>
        <time>2015-04-11T14:20:07Z</time>
      </trkpt>
      <trkpt lat="43.92012" lon="3.60766">
        <ele>889.756777845</ele>
        <time>2015-04-11T14:20:11Z</time>
      </trkpt>
      <trkpt lat="43.92013" lon="3.60788">
        <ele>889.86121445426</ele>
        <time>2015-04-11T14:20:32Z</time>
      </trkpt>
      <trkpt lat="43.92014" lon="3.60801">
        <ele>889.93697839218</ele>
        <time>2015-04-11T14:20:48Z</time>
      </trkpt>
      <trkpt lat="43.91998" lon="3.60875">
        <ele>889.97211327309</ele>
        <time>2015-04-11T14:21:35Z</time>
      </trkpt>
      <trkpt lat="43.92022" lon="3.60943">
        <ele>889.24952845706</ele>
        <time>2015-04-11T14:22:47Z</time>
      </trkpt>
      <trkpt lat="43.92027" lon="3.60953">
        <ele>889.24952845706</ele>
        <time>2015-04-11T14:23:42Z</time>
      </trkpt>
      <trkpt lat="43.92029" lon="3.60957">
        <ele>885.6658325254</ele>
        <time>2015-04-11T14:24:10Z</time>
      </trkpt>
      <trkpt lat="43.9202" lon="3.60997">
        <ele>881.43056812676</ele>
        <time>2015-04-11T14:25:36Z</time>
      </trkpt>
      <trkpt lat="43.92022" lon="3.61005">
        <ele>881.43056812676</ele>
        <time>2015-04-11T14:25:43Z</time>
      </trkpt>
      <trkpt lat="43.92022" lon="3.61008">
        <ele>881.43056812676</ele>
        <time>2015-04-11T14:25:45Z</time>
      </trkpt>
      <trkpt lat="43.92022" lon="3.6101">
        <ele>876.20051628842</ele>
        <time>2015-04-11T14:25:50Z</time>
      </trkpt>
      <trkpt lat="43.92024" lon="3.61022">
        <ele>876.20051628842</ele>
        <time>2015-04-11T14:26:04Z</time>
      </trkpt>
      <trkpt lat="43.92039" lon="3.61109">
        <ele>869.25688259889</ele>
        <time>2015-04-11T14:27:40Z</time>
      </trkpt>
      <trkpt lat="43.92037" lon="3.61137">
        <ele>862.21532895333</ele>
        <time>2015-04-11T14:27:49Z</time>
      </trkpt>
      <trkpt lat="43.9203" lon="3.61148">
        <ele>855.37682966843</ele>
        <time>2015-04-11T14:28:16Z</time>
      </trkpt>
      <trkpt lat="43.9203" lon="3.6115">
        <ele>855.37682966843</ele>
        <time>2015-04-11T14:28:55Z</time>
      </trkpt>
      <trkpt lat="43.92031" lon="3.61155">
        <ele>855.37682966843</ele>
        <time>2015-04-11T14:29:00Z</time>
      </trkpt>
      <trkpt lat="43.92037" lon="3.61257">
        <ele>846.91545475972</ele>
        <time>2015-04-11T14:30:45Z</time>
      </trkpt>
      <trkpt lat="43.92033" lon="3.61266">
        <ele>846.91545475972</ele>
        <time>2015-04-11T14:31:00Z</time>
      </trkpt>
      <trkpt lat="43.92021" lon="3.61314">
        <ele>838.06916417394</ele>
        <time>2015-04-11T14:31:41Z</time>
      </trkpt>
      <trkpt lat="43.92018" lon="3.6132">
        <ele>838.06916417394</ele>
        <time>2015-04-11T14:31:45Z</time>
      </trkpt>
      <trkpt lat="43.92009" lon="3.61337">
        <ele>829.8704709197</ele>
        <time>2015-04-11T14:32:07Z</time>
      </trkpt>
      <trkpt lat="43.91998" lon="3.61343">
        <ele>822.20745854041</ele>
        <time>2015-04-11T14:32:24Z</time>
      </trkpt>
      <trkpt lat="43.91995" lon="3.61349">
        <ele>822.20745854041</ele>
        <time>2015-04-11T14:32:24Z</time>
      </trkpt>
      <trkpt lat="43.91982" lon="3.61379">
        <ele>814.61426818609</ele>
        <time>2015-04-11T14:33:11Z</time>
      </trkpt>
      <trkpt lat="43.91969" lon="3.61419">
        <ele>807.52331718302</ele>
        <time>2015-04-11T14:33:40Z</time>
      </trkpt>
      <trkpt lat="43.91966" lon="3.61426">
        <ele>807.52331718302</ele>
        <time>2015-04-11T14:33:46Z</time>
      </trkpt>
      <trkpt lat="43.9192" lon="3.61489">
        <ele>800.22374876374</ele>
        <time>2015-04-11T14:34:43Z</time>
      </trkpt>
      <trkpt lat="43.91918" lon="3.6149">
        <ele>800.22374876374</ele>
        <time>2015-04-11T14:34:45Z</time>
      </trkpt>
      <trkpt lat="43.91913" lon="3.61496">
        <ele>800.22374876374</ele>
        <time>2015-04-11T14:35:09Z</time>
      </trkpt>
      <trkpt lat="43.9182" lon="3.61609">
        <ele>790.80327328055</ele>
        <time>2015-04-11T14:37:03Z</time>
      </trkpt>
      <trkpt lat="43.9182" lon="3.61611">
        <ele>790.80327328055</ele>
        <time>2015-04-11T14:37:11Z</time>
      </trkpt>
      <trkpt lat="43.91805" lon="3.6163">
        <ele>781.71798940828</ele>
        <time>2015-04-11T14:37:26Z</time>
      </trkpt>
      <trkpt lat="43.91807" lon="3.6164">
        <ele>781.71798940828</ele>
        <time>2015-04-11T14:37:45Z</time>
      </trkpt>
      <trkpt lat="43.91806" lon="3.61649">
        <ele>772.31665589695</ele>
        <time>2015-04-11T14:38:00Z</time>
      </trkpt>
      <trkpt lat="43.91794" lon="3.61699">
        <ele>763.8408372494</ele>
        <time>2015-04-11T14:38:41Z</time>
      </trkpt>
      <trkpt lat="43.91791" lon="3.61705">
        <ele>763.8408372494</ele>
        <time>2015-04-11T14:38:49Z</time>
      </trkpt>
      <trkpt lat="43.91778" lon="3.61754">
        <ele>756.87570016323</ele>
        <time>2015-04-11T14:39:49Z</time>
      </trkpt>
      <trkpt lat="43.91774" lon="3.61759">
        <ele>756.87570016323</ele>
        <time>2015-04-11T14:40:10Z</time>
      </trkpt>
      <trkpt lat="43.91773" lon="3.61772">
        <ele>751.31011353616</ele>
        <time>2015-04-11T14:40:29Z</time>
      </trkpt>
      <trkpt lat="43.91773" lon="3.61773">
        <ele>751.31011353616</ele>
        <time>2015-04-11T14:40:39Z</time>
      </trkpt>
      <trkpt lat="43.91771" lon="3.61785">
        <ele>746.69074354143</ele>
        <time>2015-04-11T14:40:45Z</time>
      </trkpt>
      <trkpt lat="43.9176" lon="3.61823">
        <ele>743.24284283686</ele>
        <time>2015-04-11T14:41:29Z</time>
      </trkpt>
      <trkpt lat="43.91754" lon="3.61831">
        <ele>743.24284283686</ele>
        <time>2015-04-11T14:41:47Z</time>
      </trkpt>
      <trkpt lat="43.91752" lon="3.61844">
        <ele>741.04159349398</ele>
        <time>2015-04-11T14:42:13Z</time>
      </trkpt>
      <trkpt lat="43.91744" lon="3.61861">
        <ele>739.69149736602</ele>
        <time>2015-04-11T14:42:30Z</time>
      </trkpt>
      <trkpt lat="43.91744" lon="3.61871">
        <ele>739.69149736602</ele>
        <time>2015-04-11T14:42:41Z</time>
      </trkpt>
      <trkpt lat="43.91744" lon="3.61871">
        <ele>739.69149736602</ele>
        <time>2015-04-11T14:42:46Z</time>
      </trkpt>
      <trkpt lat="43.91741" lon="3.61869">
        <ele>739.58704775974</ele>
        <time>2015-04-11T14:43:24Z</time>
      </trkpt>
      <trkpt lat="43.91737" lon="3.6187">
        <ele>739.58704775974</ele>
        <time>2015-04-11T14:43:25Z</time>
      </trkpt>
      <trkpt lat="43.91736" lon="3.61871">
        <ele>739.58704775974</ele>
        <time>2015-04-11T14:43:40Z</time>
      </trkpt>
      <trkpt lat="43.91737" lon="3.61876">
        <ele>739.58704775974</ele>
        <time>2015-04-11T14:43:53Z</time>
      </trkpt>
      <trkpt lat="43.91738" lon="3.61877">
        <ele>740.18194926222</ele>
        <time>2015-04-11T14:43:55Z</time>
      </trkpt>
      <trkpt lat="43.91739" lon="3.61883">
        <ele>740.18194926222</ele>
        <time>2015-04-11T14:44:00Z</time>
      </trkpt>
      <trkpt lat="43.91739" lon="3.61909">
        <ele>741.34240320855</ele>
        <time>2015-04-11T14:44:31Z</time>
      </trkpt>
      <trkpt lat="43.91737" lon="3.61916">
        <ele>741.34240320855</ele>
        <time>2015-04-11T14:44:32Z</time>
      </trkpt>
      <trkpt lat="43.91737" lon="3.6192">
        <ele>741.34240320855</ele>
        <time>2015-04-11T14:44:41Z</time>
      </trkpt>
      <trkpt lat="43.91729" lon="3.61924">
        <ele>742.65432676321</ele>
        <time>2015-04-11T14:45:40Z</time>
      </trkpt>
      <trkpt lat="43.91722" lon="3.61938">
        <ele>744.03601786649</ele>
        <time>2015-04-11T14:46:25Z</time>
      </trkpt>
      <trkpt lat="43.91714" lon="3.61986">
        <ele>744.70524536328</ele>
        <time>2015-04-11T14:46:45Z</time>
      </trkpt>
      <trkpt lat="43.91711" lon="3.62006">
        <ele>745.48109041803</ele>
        <time>2015-04-11T14:47:02Z</time>
      </trkpt>
      <trkpt lat="43.91707" lon="3.6202">
        <ele>745.91154122709</ele>
        <time>2015-04-11T14:47:09Z</time>
      </trkpt>
      <trkpt lat="43.91702" lon="3.62041">
        <ele>745.62194300754</ele>
        <time>2015-04-11T14:47:47Z</time>
      </trkpt>
      <trkpt lat="43.91695" lon="3.62054">
        <ele>745.36241363932</ele>
        <time>2015-04-11T14:48:07Z</time>
      </trkpt>
      <trkpt lat="43.91691" lon="3.62112">
        <ele>744.38678749469</ele>
        <time>2015-04-11T14:48:47Z</time>
      </trkpt>
      <trkpt lat="43.91691" lon="3.62114">
        <ele>744.38678749469</ele>
        <time>2015-04-11T14:48:58Z</time>
      </trkpt>
      <trkpt lat="43.91681" lon="3.62163">
        <ele>743.27393912867</ele>
        <time>2015-04-11T14:49:45Z</time>
      </trkpt>
      <trkpt lat="43.91679" lon="3.62168">
        <ele>743.27393912867</ele>
        <time>2015-04-11T14:49:52Z</time>
      </trkpt>
      <trkpt lat="43.91679" lon="3.62171">
        <ele>743.27393912867</ele>
        <time>2015-04-11T14:49:55Z</time>
      </trkpt>
      <trkpt lat="43.9168" lon="3.62175">
        <ele>742.37332015757</ele>
        <time>2015-04-11T14:50:00Z</time>
      </trkpt>
      <trkpt lat="43.91681" lon="3.62178">
        <ele>742.37332015757</ele>
        <time>2015-04-11T14:50:14Z</time>
      </trkpt>
      <trkpt lat="43.91683" lon="3.62207">
        <ele>742.46935133656</ele>
        <time>2015-04-11T14:51:41Z</time>
      </trkpt>
      <trkpt lat="43.91688" lon="3.62208">
        <ele>742.46935133656</ele>
        <time>2015-04-11T14:51:52Z</time>
      </trkpt>
      <trkpt lat="43.91668" lon="3.62211">
        <ele>743.20529879938</ele>
        <time>2015-04-11T14:52:41Z</time>
      </trkpt>
      <trkpt lat="43.91666" lon="3.62213">
        <ele>743.20529879938</ele>
        <time>2015-04-11T14:52:45Z</time>
      </trkpt>
      <trkpt lat="43.91658" lon="3.62222">
        <ele>744.03279075102</ele>
        <time>2015-04-11T14:53:06Z</time>
      </trkpt>
      <trkpt lat="43.91655" lon="3.62226">
        <ele>744.03279075102</ele>
        <time>2015-04-11T14:53:41Z</time>
      </trkpt>
      <trkpt lat="43.91644" lon="3.62259">
        <ele>744.61655534985</ele>
        <time>2015-04-11T14:53:42Z</time>
      </trkpt>
      <trkpt lat="43.91648" lon="3.62264">
        <ele>744.61655534985</ele>
        <time>2015-04-11T14:53:47Z</time>
      </trkpt>
      <trkpt lat="43.9165" lon="3.62281">
        <ele>745.18000711159</ele>
        <time>2015-04-11T14:54:01Z</time>
      </trkpt>
      <trkpt lat="43.91655" lon="3.6231">
        <ele>745.62775491848</ele>
        <time>2015-04-11T14:54:47Z</time>
      </trkpt>
      <trkpt lat="43.91652" lon="3.62371">
        <ele>745.85752847935</ele>
        <time>2015-04-11T14:55:45Z</time>
      </trkpt>
      <trkpt lat="43.9165" lon="3.62373">
        <ele>745.85752847935</ele>
        <time>2015-04-11T14:55:52Z</time>
      </trkpt>
      <trkpt lat="43.91653" lon="3.62377">
        <ele>745.85752847935</ele>
        <time>2015-04-11T14:55:55Z</time>
      </trkpt>
      <trkpt lat="43.91654" lon="3.62382">
        <ele>746.1500852562</ele>
        <time>2015-04-11T14:56:00Z</time>
      </trkpt>
      <trkpt lat="43.91661" lon="3.62434">
        <ele>746.33327529896</ele>
        <time>2015-04-11T14:56:52Z</time>
      </trkpt>
      <trkpt lat="43.9166" lon="3.62444">
        <ele>746.33327529896</ele>
        <time>2015-04-11T14:57:41Z</time>
      </trkpt>
      <trkpt lat="43.91642" lon="3.625">
        <ele>746.24813728317</ele>
        <time>2015-04-11T14:57:47Z</time>
      </trkpt>
      <trkpt lat="43.91646" lon="3.62522">
        <ele>746.26718311155</ele>
        <time>2015-04-11T14:58:16Z</time>
      </trkpt>
      <trkpt lat="43.91649" lon="3.62525">
        <ele>746.26718311155</ele>
        <time>2015-04-11T14:58:16Z</time>
      </trkpt>
      <trkpt lat="43.91652" lon="3.62531">
        <ele>746.41847212194</ele>
        <time>2015-04-11T14:58:25Z</time>
      </trkpt>
      <trkpt lat="43.9165" lon="3.62542">
        <ele>746.41847212194</ele>
        <time>2015-04-11T14:58:41Z</time>
      </trkpt>
      <trkpt lat="43.91647" lon="3.62559">
        <ele>746.77111813374</ele>
        <time>2015-04-11T14:58:45Z</time>
      </trkpt>
      <trkpt lat="43.91651" lon="3.6258">
        <ele>747.21591696851</ele>
        <time>2015-04-11T14:59:23Z</time>
      </trkpt>
      <trkpt lat="43.91655" lon="3.62607">
        <ele>748.02637885662</ele>
        <time>2015-04-11T14:59:42Z</time>
      </trkpt>
      <trkpt lat="43.91658" lon="3.62622">
        <ele>749.22458557491</ele>
        <time>2015-04-11T15:00:05Z</time>
      </trkpt>
      <trkpt lat="43.91662" lon="3.62661">
        <ele>750.68607125232</ele>
        <time>2015-04-11T15:01:08Z</time>
      </trkpt>
      <trkpt lat="43.91661" lon="3.62667">
        <ele>750.68607125232</ele>
        <time>2015-04-11T15:01:16Z</time>
      </trkpt>
      <trkpt lat="43.91663" lon="3.62691">
        <ele>752.0356546749</ele>
        <time>2015-04-11T15:01:29Z</time>
      </trkpt>
      <trkpt lat="43.91663" lon="3.62691">
        <ele>752.0356546749</ele>
        <time>2015-04-11T15:01:33Z</time>
      </trkpt>
      <trkpt lat="43.9166" lon="3.62703">
        <ele>753.35864980218</ele>
        <time>2015-04-11T15:01:45Z</time>
      </trkpt>
      <trkpt lat="43.91645" lon="3.62714">
        <ele>754.5327157428</ele>
        <time>2015-04-11T15:02:17Z</time>
      </trkpt>
      <trkpt lat="43.91638" lon="3.62725">
        <ele>755.60373656489</ele>
        <time>2015-04-11T15:02:22Z</time>
      </trkpt>
      <trkpt lat="43.91634" lon="3.62732">
        <ele>755.60373656489</ele>
        <time>2015-04-11T15:02:29Z</time>
      </trkpt>
      <trkpt lat="43.91634" lon="3.62733">
        <ele>755.60373656489</ele>
        <time>2015-04-11T15:02:31Z</time>
      </trkpt>
      <trkpt lat="43.91628" lon="3.62751">
        <ele>756.52834822899</ele>
        <time>2015-04-11T15:03:04Z</time>
      </trkpt>
      <trkpt lat="43.91629" lon="3.62756">
        <ele>756.52834822899</ele>
        <time>2015-04-11T15:03:20Z</time>
      </trkpt>
      <trkpt lat="43.9164" lon="3.6276">
        <ele>757.5553060741</ele>
        <time>2015-04-11T15:03:39Z</time>
      </trkpt>
      <trkpt lat="43.91644" lon="3.6278">
        <ele>758.75658291076</ele>
        <time>2015-04-11T15:04:12Z</time>
      </trkpt>
      <trkpt lat="43.91643" lon="3.62795">
        <ele>759.99691877885</ele>
        <time>2015-04-11T15:04:23Z</time>
      </trkpt>
      <trkpt lat="43.91642" lon="3.62801">
        <ele>759.99691877885</ele>
        <time>2015-04-11T15:04:26Z</time>
      </trkpt>
      <trkpt lat="43.91643" lon="3.62806">
        <ele>759.99691877885</ele>
        <time>2015-04-11T15:04:45Z</time>
      </trkpt>
      <trkpt lat="43.91649" lon="3.62825">
        <ele>761.8861455847</ele>
        <time>2015-04-11T15:05:38Z</time>
      </trkpt>
      <trkpt lat="43.91649" lon="3.62826">
        <ele>761.8861455847</ele>
        <time>2015-04-11T15:06:03Z</time>
      </trkpt>
      <trkpt lat="43.91647" lon="3.62821">
        <ele>761.8861455847</ele>
        <time>2015-04-11T15:06:47Z</time>
      </trkpt>
      <trkpt lat="43.9165" lon="3.62844">
        <ele>764.6274989406</ele>
        <time>2015-04-11T15:07:30Z</time>
      </trkpt>
      <trkpt lat="43.91648" lon="3.62843">
        <ele>764.6274989406</ele>
        <time>2015-04-11T15:07:42Z</time>
      </trkpt>
      <trkpt lat="43.9165" lon="3.62846">
        <ele>764.6274989406</ele>
        <time>2015-04-11T15:07:53Z</time>
      </trkpt>
      <trkpt lat="43.91649" lon="3.62844">
        <ele>764.6274989406</ele>
        <time>2015-04-11T15:07:58Z</time>
      </trkpt>
      <trkpt lat="43.91651" lon="3.62858">
        <ele>768.58013302277</ele>
        <time>2015-04-11T15:08:46Z</time>
      </trkpt>
      <trkpt lat="43.91656" lon="3.62869">
        <ele>768.58013302277</ele>
        <time>2015-04-11T15:09:27Z</time>
      </trkpt>
      <trkpt lat="43.91655" lon="3.62869">
        <ele>772.35881151409</ele>
        <time>2015-04-11T15:09:51Z</time>
      </trkpt>
      <trkpt lat="43.9165" lon="3.62886">
        <ele>775.90581458381</ele>
        <time>2015-04-11T15:09:51Z</time>
      </trkpt>
      <trkpt lat="43.9165" lon="3.62886">
        <ele>775.90581458381</ele>
        <time>2015-04-11T15:09:58Z</time>
      </trkpt>
      <trkpt lat="43.91639" lon="3.62905">
        <ele>779.15423802263</ele>
        <time>2015-04-11T15:10:45Z</time>
      </trkpt>
      <trkpt lat="43.91637" lon="3.62908">
        <ele>779.15423802263</ele>
        <time>2015-04-11T15:10:50Z</time>
      </trkpt>
      <trkpt lat="43.91637" lon="3.62908">
        <ele>779.15423802263</ele>
        <time>2015-04-11T15:10:58Z</time>
      </trkpt>
      <trkpt lat="43.9163" lon="3.62918">
        <ele>782.61972209498</ele>
        <time>2015-04-11T15:11:46Z</time>
      </trkpt>
      <trkpt lat="43.91629" lon="3.62928">
        <ele>782.61972209498</ele>
        <time>2015-04-11T15:12:40Z</time>
      </trkpt>
      <trkpt lat="43.91626" lon="3.62951">
        <ele>786.07363005495</ele>
        <time>2015-04-11T15:12:47Z</time>
      </trkpt>
      <trkpt lat="43.91628" lon="3.62952">
        <ele>786.07363005495</ele>
        <time>2015-04-11T15:12:55Z</time>
      </trkpt>
      <trkpt lat="43.91633" lon="3.62959">
        <ele>786.07363005495</ele>
        <time>2015-04-11T15:13:00Z</time>
      </trkpt>
      <trkpt lat="43.91626" lon="3.62946">
        <ele>789.40539165865</ele>
        <time>2015-04-11T15:13:26Z</time>
      </trkpt>
      <trkpt lat="43.91624" lon="3.62949">
        <ele>789.40539165865</ele>
        <time>2015-04-11T15:13:41Z</time>
      </trkpt>
      <trkpt lat="43.91624" lon="3.62953">
        <ele>789.40539165865</ele>
        <time>2015-04-11T15:13:45Z</time>
      </trkpt>
      <trkpt lat="43.91624" lon="3.62952">
        <ele>789.40539165865</ele>
        <time>2015-04-11T15:13:53Z</time>
      </trkpt>
      <trkpt lat="43.91623" lon="3.62952">
        <ele>789.40539165865</ele>
        <time>2015-04-11T15:14:00Z</time>
      </trkpt>
      <trkpt lat="43.91622" lon="3.62956">
        <ele>792.68619951338</ele>
        <time>2015-04-11T15:14:08Z</time>
      </trkpt>
      <trkpt lat="43.91622" lon="3.62956">
        <ele>792.68619951338</ele>
        <time>2015-04-11T15:14:10Z</time>
      </trkpt>
      <trkpt lat="43.91617" lon="3.62939">
        <ele>796.22751545393</ele>
        <time>2015-04-11T15:14:51Z</time>
      </trkpt>
      <trkpt lat="43.91617" lon="3.62941">
        <ele>796.22751545393</ele>
        <time>2015-04-11T15:15:07Z</time>
      </trkpt>
      <trkpt lat="43.91623" lon="3.62952">
        <ele>801.13899518249</ele>
        <time>2015-04-11T15:15:51Z</time>
      </trkpt>
      <trkpt lat="43.91633" lon="3.62969">
        <ele>806.44216677289</ele>
        <time>2015-04-11T15:16:21Z</time>
      </trkpt>
      <trkpt lat="43.91638" lon="3.62982">
        <ele>811.7196987343</ele>
        <time>2015-04-11T15:16:42Z</time>
      </trkpt>
      <trkpt lat="43.9164" lon="3.62996">
        <ele>816.80154763446</ele>
        <time>2015-04-11T15:16:45Z</time>
      </trkpt>
      <trkpt lat="43.91639" lon="3.63">
        <ele>816.80154763446</ele>
        <time>2015-04-11T15:16:50Z</time>
      </trkpt>
      <trkpt lat="43.91639" lon="3.63001">
        <ele>816.80154763446</ele>
        <time>2015-04-11T15:17:00Z</time>
      </trkpt>
      <trkpt lat="43.91641" lon="3.63008">
        <ele>821.86256797303</ele>
        <time>2015-04-11T15:17:23Z</time>
      </trkpt>
      <trkpt lat="43.91639" lon="3.63029">
        <ele>827.05082674434</ele>
        <time>2015-04-11T15:17:43Z</time>
      </trkpt>
      <trkpt lat="43.9164" lon="3.63034">
        <ele>827.05082674434</ele>
        <time>2015-04-11T15:19:52Z</time>
      </trkpt>
      <trkpt lat="43.91642" lon="3.63038">
        <ele>827.05082674434</ele>
        <time>2015-04-11T15:19:55Z</time>
      </trkpt>
      <trkpt lat="43.91654" lon="3.63069">
        <ele>832.97914085484</ele>
        <time>2015-04-11T15:20:50Z</time>
      </trkpt>
      <trkpt lat="43.91663" lon="3.63073">
        <ele>838.25374406315</ele>
        <time>2015-04-11T15:21:08Z</time>
      </trkpt>
      <trkpt lat="43.91682" lon="3.63078">
        <ele>842.81045910671</ele>
        <time>2015-04-11T15:21:49Z</time>
      </trkpt>
      <trkpt lat="43.91685" lon="3.63088">
        <ele>842.81045910671</ele>
        <time>2015-04-11T15:22:37Z</time>
      </trkpt>
      <trkpt lat="43.91699" lon="3.63097">
        <ele>846.53461691159</ele>
        <time>2015-04-11T15:22:45Z</time>
      </trkpt>
      <trkpt lat="43.91703" lon="3.63109">
        <ele>848.97685806182</ele>
        <time>2015-04-11T15:23:47Z</time>
      </trkpt>
      <trkpt lat="43.91704" lon="3.6311">
        <ele>848.97685806182</ele>
        <time>2015-04-11T15:23:55Z</time>
      </trkpt>
      <trkpt lat="43.91709" lon="3.63117">
        <ele>848.97685806182</ele>
        <time>2015-04-11T15:24:01Z</time>
      </trkpt>
      <trkpt lat="43.91711" lon="3.63121">
        <ele>850.89213241333</ele>
        <time>2015-04-11T15:24:16Z</time>
      </trkpt>
      <trkpt lat="43.91715" lon="3.63139">
        <ele>852.2756468183</ele>
        <time>2015-04-11T15:24:36Z</time>
      </trkpt>
      <trkpt lat="43.91714" lon="3.63147">
        <ele>852.2756468183</ele>
        <time>2015-04-11T15:24:49Z</time>
      </trkpt>
      <trkpt lat="43.91725" lon="3.63145">
        <ele>852.93746138113</ele>
        <time>2015-04-11T15:25:04Z</time>
      </trkpt>
      <trkpt lat="43.91725" lon="3.63145">
        <ele>852.93746138113</ele>
        <time>2015-04-11T15:25:05Z</time>
      </trkpt>
      <trkpt lat="43.91733" lon="3.6315">
        <ele>852.93746138113</ele>
        <time>2015-04-11T15:25:51Z</time>
      </trkpt>
      <trkpt lat="43.91728" lon="3.63157">
        <ele>852.58864541347</ele>
        <time>2015-04-11T15:25:51Z</time>
      </trkpt>
      <trkpt lat="43.91731" lon="3.63168">
        <ele>852.58864541347</ele>
        <time>2015-04-11T15:26:24Z</time>
      </trkpt>
      <trkpt lat="43.91734" lon="3.63173">
        <ele>850.99343248565</ele>
        <time>2015-04-11T15:26:38Z</time>
      </trkpt>
      <trkpt lat="43.91736" lon="3.6317">
        <ele>850.99343248565</ele>
        <time>2015-04-11T15:26:43Z</time>
      </trkpt>
      <trkpt lat="43.91736" lon="3.63171">
        <ele>850.99343248565</ele>
        <time>2015-04-11T15:26:45Z</time>
      </trkpt>
      <trkpt lat="43.91736" lon="3.63171">
        <ele>850.99343248565</ele>
        <time>2015-04-11T15:26:50Z</time>
      </trkpt>
      <trkpt lat="43.91739" lon="3.63173">
        <ele>850.99343248565</ele>
        <time>2015-04-11T15:26:57Z</time>
      </trkpt>
      <trkpt lat="43.91747" lon="3.63176">
        <ele>848.71531099403</ele>
        <time>2015-04-11T15:27:15Z</time>
      </trkpt>
      <trkpt lat="43.91746" lon="3.63187">
        <ele>848.71531099403</ele>
        <time>2015-04-11T15:27:37Z</time>
      </trkpt>
      <trkpt lat="43.91747" lon="3.6319">
        <ele>846.13437126778</ele>
        <time>2015-04-11T15:27:42Z</time>
      </trkpt>
      <trkpt lat="43.91747" lon="3.63193">
        <ele>846.13437126778</ele>
        <time>2015-04-11T15:27:48Z</time>
      </trkpt>
      <trkpt lat="43.91747" lon="3.63193">
        <ele>846.13437126778</ele>
        <time>2015-04-11T15:28:05Z</time>
      </trkpt>
      <trkpt lat="43.91747" lon="3.63208">
        <ele>843.15702699748</ele>
        <time>2015-04-11T15:28:25Z</time>
      </trkpt>
      <trkpt lat="43.91739" lon="3.63208">
        <ele>843.15702699748</ele>
        <time>2015-04-11T15:29:04Z</time>
      </trkpt>
      <trkpt lat="43.91738" lon="3.63208">
        <ele>843.15702699748</ele>
        <time>2015-04-11T15:29:05Z</time>
      </trkpt>
      <trkpt lat="43.91739" lon="3.6321">
        <ele>839.20778683938</ele>
        <time>2015-04-11T15:29:37Z</time>
      </trkpt>
      <trkpt lat="43.91739" lon="3.632">
        <ele>839.20778683938</ele>
        <time>2015-04-11T15:30:28Z</time>
      </trkpt>
      <trkpt lat="43.91736" lon="3.63206">
        <ele>833.15092328608</ele>
        <time>2015-04-11T15:30:47Z</time>
      </trkpt>
      <trkpt lat="43.91729" lon="3.63217">
        <ele>827.34104535136</ele>
        <time>2015-04-11T15:30:57Z</time>
      </trkpt>
      <trkpt lat="43.91729" lon="3.63217">
        <ele>827.34104535136</ele>
        <time>2015-04-11T15:31:03Z</time>
      </trkpt>
      <trkpt lat="43.91734" lon="3.6323">
        <ele>821.75411078737</ele>
        <time>2015-04-11T15:31:32Z</time>
      </trkpt>
      <trkpt lat="43.91736" lon="3.63231">
        <ele>821.75411078737</ele>
        <time>2015-04-11T15:31:43Z</time>
      </trkpt>
      <trkpt lat="43.91749" lon="3.63233">
        <ele>816.26619122165</ele>
        <time>2015-04-11T15:31:57Z</time>
      </trkpt>
      <trkpt lat="43.91751" lon="3.63232">
        <ele>816.26619122165</ele>
        <time>2015-04-11T15:32:06Z</time>
      </trkpt>
      <trkpt lat="43.91756" lon="3.63228">
        <ele>816.26619122165</ele>
        <time>2015-04-11T15:32:06Z</time>
      </trkpt>
      <trkpt lat="43.91761" lon="3.63218">
        <ele>810.80521216048</ele>
        <time>2015-04-11T15:32:42Z</time>
      </trkpt>
      <trkpt lat="43.91775" lon="3.63188">
        <ele>804.22322652265</ele>
        <time>2015-04-11T15:33:19Z</time>
      </trkpt>
      <trkpt lat="43.91786" lon="3.63198">
        <ele>797.13114175647</ele>
        <time>2015-04-11T15:34:25Z</time>
      </trkpt>
      <trkpt lat="43.91787" lon="3.63197">
        <ele>797.13114175647</ele>
        <time>2015-04-11T15:34:25Z</time>
      </trkpt>
      <trkpt lat="43.91797" lon="3.6319">
        <ele>790.13929807485</ele>
        <time>2015-04-11T15:34:44Z</time>
      </trkpt>
      <trkpt lat="43.91798" lon="3.63189">
        <ele>790.13929807485</ele>
        <time>2015-04-11T15:34:45Z</time>
      </trkpt>
      <trkpt lat="43.91817" lon="3.63186">
        <ele>782.76050658738</ele>
        <time>2015-04-11T15:35:44Z</time>
      </trkpt>
      <trkpt lat="43.91827" lon="3.63188">
        <ele>775.25015127362</ele>
        <time>2015-04-11T15:36:27Z</time>
      </trkpt>
      <trkpt lat="43.91827" lon="3.63187">
        <ele>775.25015127362</ele>
        <time>2015-04-11T15:36:47Z</time>
      </trkpt>
      <trkpt lat="43.91828" lon="3.63186">
        <ele>775.25015127362</ele>
        <time>2015-04-11T15:36:56Z</time>
      </trkpt>
      <trkpt lat="43.91831" lon="3.63198">
        <ele>765.91364455833</ele>
        <time>2015-04-11T15:37:42Z</time>
      </trkpt>
      <trkpt lat="43.91832" lon="3.63202">
        <ele>765.91364455833</ele>
        <time>2015-04-11T15:37:45Z</time>
      </trkpt>
      <trkpt lat="43.91844" lon="3.632">
        <ele>756.83148433241</ele>
        <time>2015-04-11T15:38:22Z</time>
      </trkpt>
      <trkpt lat="43.91852" lon="3.63217">
        <ele>747.97013595172</ele>
        <time>2015-04-11T15:38:47Z</time>
      </trkpt>
      <trkpt lat="43.91864" lon="3.63254">
        <ele>738.56232612666</ele>
        <time>2015-04-11T15:39:47Z</time>
      </trkpt>
      <trkpt lat="43.91868" lon="3.63258">
        <ele>738.56232612666</ele>
        <time>2015-04-11T15:39:54Z</time>
      </trkpt>
      <trkpt lat="43.9188" lon="3.63308">
        <ele>728.50329010163</ele>
        <time>2015-04-11T15:40:45Z</time>
      </trkpt>
      <trkpt lat="43.91878" lon="3.6333">
        <ele>719.06615297213</ele>
        <time>2015-04-11T15:41:01Z</time>
      </trkpt>
      <trkpt lat="43.91876" lon="3.63337">
        <ele>719.06615297213</ele>
        <time>2015-04-11T15:41:15Z</time>
      </trkpt>
      <trkpt lat="43.91856" lon="3.63401">
        <ele>709.58342925235</ele>
        <time>2015-04-11T15:41:47Z</time>
      </trkpt>
      <trkpt lat="43.91853" lon="3.63409">
        <ele>709.58342925235</ele>
        <time>2015-04-11T15:41:52Z</time>
      </trkpt>
      <trkpt lat="43.91851" lon="3.63414">
        <ele>700.90598247878</ele>
        <time>2015-04-11T15:41:55Z</time>
      </trkpt>
      <trkpt lat="43.91828" lon="3.63481">
        <ele>692.17627970894</ele>
        <time>2015-04-11T15:42:47Z</time>
      </trkpt>
      <trkpt lat="43.91829" lon="3.6349">
        <ele>692.17627970894</ele>
        <time>2015-04-11T15:42:56Z</time>
      </trkpt>
      <trkpt lat="43.91812" lon="3.63564">
        <ele>683.07471431305</ele>
        <time>2015-04-11T15:43:45Z</time>
      </trkpt>
      <trkpt lat="43.91796" lon="3.6361">
        <ele>674.01155438549</ele>
        <time>2015-04-11T15:44:42Z</time>
      </trkpt>
      <trkpt lat="43.91788" lon="3.63623">
        <ele>665.66865880048</ele>
        <time>2015-04-11T15:44:45Z</time>
      </trkpt>
      <trkpt lat="43.91761" lon="3.6365">
        <ele>656.65742003852</ele>
        <time>2015-04-11T15:45:47Z</time>
      </trkpt>
      <trkpt lat="43.91764" lon="3.63686">
        <ele>647.59457770495</ele>
        <time>2015-04-11T15:46:07Z</time>
      </trkpt>
      <trkpt lat="43.91764" lon="3.6369">
        <ele>647.59457770495</ele>
        <time>2015-04-11T15:46:11Z</time>
      </trkpt>
      <trkpt lat="43.91764" lon="3.63695">
        <ele>647.59457770495</ele>
        <time>2015-04-11T15:46:15Z</time>
      </trkpt>
      <trkpt lat="43.91765" lon="3.63699">
        <ele>638.64739993937</ele>
        <time>2015-04-11T15:46:20Z</time>
      </trkpt>
      <trkpt lat="43.91766" lon="3.63704">
        <ele>638.64739993937</ele>
        <time>2015-04-11T15:46:25Z</time>
      </trkpt>
      <trkpt lat="43.91765" lon="3.6371">
        <ele>638.64739993937</ele>
        <time>2015-04-11T15:46:30Z</time>
      </trkpt>
      <trkpt lat="43.91766" lon="3.63718">
        <ele>630.12827018891</ele>
        <time>2015-04-11T15:46:35Z</time>
      </trkpt>
      <trkpt lat="43.91766" lon="3.63728">
        <ele>630.12827018891</ele>
        <time>2015-04-11T15:46:40Z</time>
      </trkpt>
      <trkpt lat="43.91767" lon="3.63736">
        <ele>622.58403671812</ele>
        <time>2015-04-11T15:46:45Z</time>
      </trkpt>
      <trkpt lat="43.91766" lon="3.63745">
        <ele>622.58403671812</ele>
        <time>2015-04-11T15:46:57Z</time>
      </trkpt>
      <trkpt lat="43.91772" lon="3.63784">
        <ele>615.56673422681</ele>
        <time>2015-04-11T15:47:14Z</time>
      </trkpt>
      <trkpt lat="43.91773" lon="3.63788">
        <ele>615.56673422681</ele>
        <time>2015-04-11T15:47:15Z</time>
      </trkpt>
      <trkpt lat="43.9179" lon="3.63831">
        <ele>608.78877130744</ele>
        <time>2015-04-11T15:47:44Z</time>
      </trkpt>
      <trkpt lat="43.91791" lon="3.63832">
        <ele>608.78877130744</ele>
        <time>2015-04-11T15:47:45Z</time>
      </trkpt>
      <trkpt lat="43.91781" lon="3.63844">
        <ele>602.45784723903</ele>
        <time>2015-04-11T15:48:16Z</time>
      </trkpt>
      <trkpt lat="43.91752" lon="3.63849">
        <ele>596.53386958045</ele>
        <time>2015-04-11T15:48:30Z</time>
      </trkpt>
      <trkpt lat="43.91733" lon="3.63854">
        <ele>591.09316823829</ele>
        <time>2015-04-11T15:48:44Z</time>
      </trkpt>
      <trkpt lat="43.91731" lon="3.63854">
        <ele>591.09316823829</ele>
        <time>2015-04-11T15:48:48Z</time>
      </trkpt>
      <trkpt lat="43.91663" lon="3.63912">
        <ele>584.50396076702</ele>
        <time>2015-04-11T15:49:52Z</time>
      </trkpt>
      <trkpt lat="43.91608" lon="3.63939">
        <ele>578.12476404399</ele>
        <time>2015-04-11T15:50:30Z</time>
      </trkpt>
      <trkpt lat="43.91591" lon="3.63942">
        <ele>572.60787185899</ele>
        <time>2015-04-11T15:50:44Z</time>
      </trkpt>
      <trkpt lat="43.9159" lon="3.63943">
        <ele>572.60787185899</ele>
        <time>2015-04-11T15:50:45Z</time>
      </trkpt>
      <trkpt lat="43.91569" lon="3.63951">
        <ele>568.03590462643</ele>
        <time>2015-04-11T15:51:00Z</time>
      </trkpt>
      <trkpt lat="43.91545" lon="3.63971">
        <ele>564.19403969477</ele>
        <time>2015-04-11T15:51:30Z</time>
      </trkpt>
      <trkpt lat="43.91532" lon="3.64003">
        <ele>561.12571665882</ele>
        <time>2015-04-11T15:51:43Z</time>
      </trkpt>
      <trkpt lat="43.9153" lon="3.64007">
        <ele>561.12571665882</ele>
        <time>2015-04-11T15:51:45Z</time>
      </trkpt>
      <trkpt lat="43.91503" lon="3.64074">
        <ele>558.23451109156</ele>
        <time>2015-04-11T15:52:30Z</time>
      </trkpt>
      <trkpt lat="43.91499" lon="3.64095">
        <ele>556.03337254209</ele>
        <time>2015-04-11T15:52:44Z</time>
      </trkpt>
      <trkpt lat="43.91498" lon="3.64098">
        <ele>556.03337254209</ele>
        <time>2015-04-11T15:52:48Z</time>
      </trkpt>
      <trkpt lat="43.91496" lon="3.64136">
        <ele>554.56298697856</ele>
        <time>2015-04-11T15:53:06Z</time>
      </trkpt>
      <trkpt lat="43.91484" lon="3.64181">
        <ele>554.03167572296</ele>
        <time>2015-04-11T15:53:41Z</time>
      </trkpt>
      <trkpt lat="43.91473" lon="3.64195">
        <ele>554.1684636982</ele>
        <time>2015-04-11T15:53:46Z</time>
      </trkpt>
      <trkpt lat="43.9147" lon="3.642">
        <ele>554.1684636982</ele>
        <time>2015-04-11T15:53:53Z</time>
      </trkpt>
      <trkpt lat="43.91425" lon="3.64243">
        <ele>555.38317512814</ele>
        <time>2015-04-11T15:54:47Z</time>
      </trkpt>
      <trkpt lat="43.91418" lon="3.64252">
        <ele>557.13011201605</ele>
        <time>2015-04-11T15:55:10Z</time>
      </trkpt>
      <trkpt lat="43.91386" lon="3.6426">
        <ele>559.44977513734</ele>
        <time>2015-04-11T15:55:44Z</time>
      </trkpt>
      <trkpt lat="43.91385" lon="3.6426">
        <ele>559.44977513734</ele>
        <time>2015-04-11T15:55:47Z</time>
      </trkpt>
      <trkpt lat="43.91383" lon="3.6426">
        <ele>559.44977513734</ele>
        <time>2015-04-11T15:55:50Z</time>
      </trkpt>
      <trkpt lat="43.91357" lon="3.64232">
        <ele>562.32048689445</ele>
        <time>2015-04-11T15:56:45Z</time>
      </trkpt>
      <trkpt lat="43.91461" lon="3.64209">
        <ele>565.33162879181</ele>
        <time>2015-04-11T15:57:48Z</time>
      </trkpt>
      <trkpt lat="43.91497" lon="3.64189">
        <ele>568.52045021965</ele>
        <time>2015-04-11T15:58:15Z</time>
      </trkpt>
      <trkpt lat="43.91371" lon="3.64221">
        <ele>571.5465121937</ele>
        <time>2015-04-11T15:58:18Z</time>
      </trkpt>
      <trkpt lat="43.91368" lon="3.64222">
        <ele>571.5465121937</ele>
        <time>2015-04-11T15:58:20Z</time>
      </trkpt>
      <trkpt lat="43.91365" lon="3.64229">
        <ele>574.67157669278</ele>
        <time>2015-04-11T15:58:28Z</time>
      </trkpt>
      <trkpt lat="43.91363" lon="3.64236">
        <ele>574.67157669278</ele>
        <time>2015-04-11T15:58:30Z</time>
      </trkpt>
      <trkpt lat="43.91366" lon="3.64237">
        <ele>574.67157669278</ele>
        <time>2015-04-11T15:58:35Z</time>
      </trkpt>
      <trkpt lat="43.91366" lon="3.64239">
        <ele>574.67157669278</ele>
        <time>2015-04-11T15:58:40Z</time>
      </trkpt>
      <trkpt lat="43.91367" lon="3.64248">
        <ele>578.25353111641</ele>
        <time>2015-04-11T15:58:50Z</time>
      </trkpt>
      <trkpt lat="43.91368" lon="3.64251">
        <ele>578.25353111641</ele>
        <time>2015-04-11T15:58:58Z</time>
      </trkpt>
      <trkpt lat="43.91367" lon="3.64252">
        <ele>578.25353111641</ele>
        <time>2015-04-11T15:59:07Z</time>
      </trkpt>
      <trkpt lat="43.91383" lon="3.64258">
        <ele>581.94575934518</ele>
        <time>2015-04-11T15:59:20Z</time>
      </trkpt>
      <trkpt lat="43.91388" lon="3.64259">
        <ele>581.94575934518</ele>
        <time>2015-04-11T15:59:35Z</time>
      </trkpt>
      <trkpt lat="43.9139" lon="3.64281">
        <ele>585.47046606811</ele>
        <time>2015-04-11T15:59:45Z</time>
      </trkpt>
      <trkpt lat="43.91343" lon="3.64333">
        <ele>588.84501826807</ele>
        <time>2015-04-11T16:00:48Z</time>
      </trkpt>
      <trkpt lat="43.91338" lon="3.64342">
        <ele>588.84501826807</ele>
        <time>2015-04-11T16:01:10Z</time>
      </trkpt>
      <trkpt lat="43.91307" lon="3.64375">
        <ele>591.94232686543</ele>
        <time>2015-04-11T16:01:47Z</time>
      </trkpt>
      <trkpt lat="43.91276" lon="3.64404">
        <ele>594.31449922415</ele>
        <time>2015-04-11T16:06:45Z</time>
      </trkpt>
      <trkpt lat="43.91212" lon="3.64424">
        <ele>596.64438508217</ele>
        <time>2015-04-11T16:07:44Z</time>
      </trkpt>
      <trkpt lat="43.91209" lon="3.64423">
        <ele>596.64438508217</ele>
        <time>2015-04-11T16:07:45Z</time>
      </trkpt>
      <trkpt lat="43.91193" lon="3.64417">
        <ele>597.9080892747</ele>
        <time>2015-04-11T16:08:00Z</time>
      </trkpt>
      <trkpt lat="43.9121" lon="3.64356">
        <ele>598.05399526305</ele>
        <time>2015-04-11T16:08:45Z</time>
      </trkpt>
      <trkpt lat="43.91203" lon="3.6435">
        <ele>598.05399526305</ele>
        <time>2015-04-11T16:08:50Z</time>
      </trkpt>
      <trkpt lat="43.91199" lon="3.64345">
        <ele>598.04677559295</ele>
        <time>2015-04-11T16:08:55Z</time>
      </trkpt>
      <trkpt lat="43.91185" lon="3.64329">
        <ele>597.7724662173</ele>
        <time>2015-04-11T16:09:17Z</time>
      </trkpt>
      <trkpt lat="43.91154" lon="3.64327">
        <ele>597.19884273301</ele>
        <time>2015-04-11T16:09:33Z</time>
      </trkpt>
      <trkpt lat="43.91139" lon="3.64325">
        <ele>596.49918936944</ele>
        <time>2015-04-11T16:09:45Z</time>
      </trkpt>
      <trkpt lat="43.9109" lon="3.64285">
        <ele>595.27290743117</ele>
        <time>2015-04-11T16:10:33Z</time>
      </trkpt>
      <trkpt lat="43.91045" lon="3.64271">
        <ele>593.55431842468</ele>
        <time>2015-04-11T16:11:14Z</time>
      </trkpt>
      <trkpt lat="43.91021" lon="3.64292">
        <ele>591.60766020492</ele>
        <time>2015-04-11T16:11:28Z</time>
      </trkpt>
      <trkpt lat="43.91019" lon="3.64293">
        <ele>591.60766020492</ele>
        <time>2015-04-11T16:11:31Z</time>
      </trkpt>
      <trkpt lat="43.91017" lon="3.64293">
        <ele>591.60766020492</ele>
        <time>2015-04-11T16:11:42Z</time>
      </trkpt>
      <trkpt lat="43.90998" lon="3.6429">
        <ele>589.59238424807</ele>
        <time>2015-04-11T16:11:46Z</time>
      </trkpt>
      <trkpt lat="43.90974" lon="3.64274">
        <ele>587.48391011473</ele>
        <time>2015-04-11T16:12:14Z</time>
      </trkpt>
      <trkpt lat="43.90973" lon="3.64269">
        <ele>587.48391011473</ele>
        <time>2015-04-11T16:12:15Z</time>
      </trkpt>
      <trkpt lat="43.9097" lon="3.64264">
        <ele>587.48391011473</ele>
        <time>2015-04-11T16:12:20Z</time>
      </trkpt>
      <trkpt lat="43.90964" lon="3.6426">
        <ele>585.36099494853</ele>
        <time>2015-04-11T16:12:25Z</time>
      </trkpt>
      <trkpt lat="43.90959" lon="3.64255">
        <ele>585.36099494853</ele>
        <time>2015-04-11T16:12:30Z</time>
      </trkpt>
      <trkpt lat="43.90954" lon="3.64251">
        <ele>583.1673142893</ele>
        <time>2015-04-11T16:12:35Z</time>
      </trkpt>
      <trkpt lat="43.9095" lon="3.64249">
        <ele>583.1673142893</ele>
        <time>2015-04-11T16:12:40Z</time>
      </trkpt>
      <trkpt lat="43.90942" lon="3.64248">
        <ele>580.90885896189</ele>
        <time>2015-04-11T16:12:45Z</time>
      </trkpt>
      <trkpt lat="43.90935" lon="3.64248">
        <ele>580.90885896189</ele>
        <time>2015-04-11T16:12:50Z</time>
      </trkpt>
      <trkpt lat="43.9093" lon="3.64251">
        <ele>578.64931275824</ele>
        <time>2015-04-11T16:12:55Z</time>
      </trkpt>
      <trkpt lat="43.90924" lon="3.64248">
        <ele>578.64931275824</ele>
        <time>2015-04-11T16:13:00Z</time>
      </trkpt>
      <trkpt lat="43.90918" lon="3.64245">
        <ele>576.43355322016</ele>
        <time>2015-04-11T16:13:05Z</time>
      </trkpt>
      <trkpt lat="43.909" lon="3.64256">
        <ele>573.89978068212</ele>
        <time>2015-04-11T16:13:25Z</time>
      </trkpt>
      <trkpt lat="43.90884" lon="3.64285">
        <ele>571.14622628884</ele>
        <time>2015-04-11T16:13:45Z</time>
      </trkpt>
      <trkpt lat="43.90825" lon="3.64306">
        <ele>567.63063333481</ele>
        <time>2015-04-11T16:14:36Z</time>
      </trkpt>
      <trkpt lat="43.90812" lon="3.64286">
        <ele>564.07783482295</ele>
        <time>2015-04-11T16:14:45Z</time>
      </trkpt>
      <trkpt lat="43.90808" lon="3.64275">
        <ele>564.07783482295</ele>
        <time>2015-04-11T16:14:58Z</time>
      </trkpt>
      <trkpt lat="43.90802" lon="3.64232">
        <ele>560.00677682838</ele>
        <time>2015-04-11T16:15:21Z</time>
      </trkpt>
      <trkpt lat="43.9077" lon="3.6424">
        <ele>555.89562232982</ele>
        <time>2015-04-11T16:15:45Z</time>
      </trkpt>
      <trkpt lat="43.90747" lon="3.64307">
        <ele>551.39499227389</ele>
        <time>2015-04-11T16:16:35Z</time>
      </trkpt>
      <trkpt lat="43.90745" lon="3.64311">
        <ele>551.39499227389</ele>
        <time>2015-04-11T16:16:39Z</time>
      </trkpt>
      <trkpt lat="43.90737" lon="3.64318">
        <ele>546.98933983246</ele>
        <time>2015-04-11T16:16:45Z</time>
      </trkpt>
      <trkpt lat="43.9073" lon="3.64322">
        <ele>546.98933983246</ele>
        <time>2015-04-11T16:16:58Z</time>
      </trkpt>
      <trkpt lat="43.90722" lon="3.64333">
        <ele>542.69495286642</ele>
        <time>2015-04-11T16:17:24Z</time>
      </trkpt>
      <trkpt lat="43.90711" lon="3.64349">
        <ele>538.81482799672</ele>
        <time>2015-04-11T16:17:32Z</time>
      </trkpt>
      <trkpt lat="43.9069" lon="3.64321">
        <ele>534.34592173133</ele>
        <time>2015-04-11T16:17:45Z</time>
      </trkpt>
      <trkpt lat="43.90681" lon="3.6432">
        <ele>534.34592173133</ele>
        <time>2015-04-11T16:17:56Z</time>
      </trkpt>
      <trkpt lat="43.90671" lon="3.64317">
        <ele>530.1474503139</ele>
        <time>2015-04-11T16:18:33Z</time>
      </trkpt>
      <trkpt lat="43.90621" lon="3.64292">
        <ele>525.68885647092</ele>
        <time>2015-04-11T16:18:45Z</time>
      </trkpt>
      <trkpt lat="43.90557" lon="3.64259">
        <ele>521.02681478062</ele>
        <time>2015-04-11T16:19:45Z</time>
      </trkpt>
      <trkpt lat="43.90551" lon="3.64254">
        <ele>521.02681478062</ele>
        <time>2015-04-11T16:20:00Z</time>
      </trkpt>
      <trkpt lat="43.90542" lon="3.64248">
        <ele>516.64662717468</ele>
        <time>2015-04-11T16:20:45Z</time>
      </trkpt>
      <trkpt lat="43.90498" lon="3.64207">
        <ele>512.10353451618</ele>
        <time>2015-04-11T16:20:53Z</time>
      </trkpt>
      <trkpt lat="43.90511" lon="3.64171">
        <ele>506.85605775401</ele>
        <time>2015-04-11T16:21:49Z</time>
      </trkpt>
      <trkpt lat="43.90507" lon="3.64098">
        <ele>500.92310431445</ele>
        <time>2015-04-11T16:22:45Z</time>
      </trkpt>
      <trkpt lat="43.90503" lon="3.6409">
        <ele>500.92310431445</ele>
        <time>2015-04-11T16:23:00Z</time>
      </trkpt>
      <trkpt lat="43.90451" lon="3.6401">
        <ele>494.52568572543</ele>
        <time>2015-04-11T16:23:44Z</time>
      </trkpt>
      <trkpt lat="43.9045" lon="3.64009">
        <ele>494.52568572543</ele>
        <time>2015-04-11T16:23:45Z</time>
      </trkpt>
      <trkpt lat="43.90449" lon="3.64002">
        <ele>494.52568572543</ele>
        <time>2015-04-11T16:23:50Z</time>
      </trkpt>
      <trkpt lat="43.90436" lon="3.63985">
        <ele>488.44612000367</ele>
        <time>2015-04-11T16:24:02Z</time>
      </trkpt>
      <trkpt lat="43.9039" lon="3.63941">
        <ele>482.24083755926</ele>
        <time>2015-04-11T16:24:45Z</time>
      </trkpt>
      <trkpt lat="43.90383" lon="3.63934">
        <ele>482.24083755926</ele>
        <time>2015-04-11T16:25:00Z</time>
      </trkpt>
      <trkpt lat="43.90371" lon="3.63924">
        <ele>476.60861577025</ele>
        <time>2015-04-11T16:25:00Z</time>
      </trkpt>
      <trkpt lat="43.9037" lon="3.63923">
        <ele>476.60861577025</ele>
        <time>2015-04-11T16:25:09Z</time>
      </trkpt>
      <trkpt lat="43.90315" lon="3.63908">
        <ele>471.27271917408</ele>
        <time>2015-04-11T16:25:45Z</time>
      </trkpt>
      <trkpt lat="43.90308" lon="3.63906">
        <ele>471.27271917408</ele>
        <time>2015-04-11T16:25:58Z</time>
      </trkpt>
      <trkpt lat="43.90253" lon="3.63852">
        <ele>465.97563574437</ele>
        <time>2015-04-11T16:26:45Z</time>
      </trkpt>
      <trkpt lat="43.90249" lon="3.63845">
        <ele>465.97563574437</ele>
        <time>2015-04-11T16:26:50Z</time>
      </trkpt>
      <trkpt lat="43.9022" lon="3.63829">
        <ele>461.58803598239</ele>
        <time>2015-04-11T16:27:16Z</time>
      </trkpt>
      <trkpt lat="43.90181" lon="3.63802">
        <ele>458.06354135985</ele>
        <time>2015-04-11T16:27:47Z</time>
      </trkpt>
      <trkpt lat="43.90179" lon="3.638">
        <ele>458.06354135985</ele>
        <time>2015-04-11T16:27:47Z</time>
      </trkpt>
      <trkpt lat="43.90178" lon="3.63794">
        <ele>458.06354135985</ele>
        <time>2015-04-11T16:27:53Z</time>
      </trkpt>
      <trkpt lat="43.90147" lon="3.63765">
        <ele>455.22678024086</ele>
        <time>2015-04-11T16:28:25Z</time>
      </trkpt>
      <trkpt lat="43.90121" lon="3.63744">
        <ele>452.85542119739</ele>
        <time>2015-04-11T16:28:45Z</time>
      </trkpt>
      <trkpt lat="43.90114" lon="3.63737">
        <ele>451.00130686956</ele>
        <time>2015-04-11T16:28:58Z</time>
      </trkpt>
      <trkpt lat="43.90104" lon="3.63729">
        <ele>449.56667702245</ele>
        <time>2015-04-11T16:29:31Z</time>
      </trkpt>
      <trkpt lat="43.90072" lon="3.6367">
        <ele>448.44515618339</ele>
        <time>2015-04-11T16:29:45Z</time>
      </trkpt>
      <trkpt lat="43.90068" lon="3.63666">
        <ele>448.44515618339</ele>
        <time>2015-04-11T16:29:56Z</time>
      </trkpt>
      <trkpt lat="43.90019" lon="3.63663">
        <ele>447.98386718778</ele>
        <time>2015-04-11T16:30:45Z</time>
      </trkpt>
      <trkpt lat="43.89969" lon="3.63614">
        <ele>447.83951637239</ele>
        <time>2015-04-11T16:31:44Z</time>
      </trkpt>
      <trkpt lat="43.89968" lon="3.63613">
        <ele>447.83951637239</ele>
        <time>2015-04-11T16:31:45Z</time>
      </trkpt>
      <trkpt lat="43.89965" lon="3.63605">
        <ele>447.83951637239</ele>
        <time>2015-04-11T16:31:55Z</time>
      </trkpt>
      <trkpt lat="43.89948" lon="3.63574">
        <ele>447.47684837401</ele>
        <time>2015-04-11T16:32:12Z</time>
      </trkpt>
      <trkpt lat="43.89947" lon="3.63572">
        <ele>447.47684837401</ele>
        <time>2015-04-11T16:32:22Z</time>
      </trkpt>
      <trkpt lat="43.89932" lon="3.63546">
        <ele>447.03453459087</ele>
        <time>2015-04-11T16:32:35Z</time>
      </trkpt>
      <trkpt lat="43.89932" lon="3.63545">
        <ele>447.03453459087</ele>
        <time>2015-04-11T16:32:35Z</time>
      </trkpt>
      <trkpt lat="43.89922" lon="3.63538">
        <ele>446.7420954837</ele>
        <time>2015-04-11T16:32:46Z</time>
      </trkpt>
      <trkpt lat="43.89919" lon="3.63532">
        <ele>446.7420954837</ele>
        <time>2015-04-11T16:32:55Z</time>
      </trkpt>
      <trkpt lat="43.899" lon="3.63507">
        <ele>446.40822075198</ele>
        <time>2015-04-11T16:33:10Z</time>
      </trkpt>
      <trkpt lat="43.89892" lon="3.63496">
        <ele>446.23044528388</ele>
        <time>2015-04-11T16:33:27Z</time>
      </trkpt>
      <trkpt lat="43.89866" lon="3.63474">
        <ele>446.17519854304</ele>
        <time>2015-04-11T16:33:45Z</time>
      </trkpt>
      <trkpt lat="43.89858" lon="3.63473">
        <ele>446.17519854304</ele>
        <time>2015-04-11T16:33:57Z</time>
      </trkpt>
      <trkpt lat="43.89817" lon="3.63441">
        <ele>446.28312065395</ele>
        <time>2015-04-11T16:34:30Z</time>
      </trkpt>
      <trkpt lat="43.89803" lon="3.63428">
        <ele>446.60587443347</ele>
        <time>2015-04-11T16:34:45Z</time>
      </trkpt>
      <trkpt lat="43.89796" lon="3.63427">
        <ele>446.60587443347</ele>
        <time>2015-04-11T16:34:55Z</time>
      </trkpt>
      <trkpt lat="43.89772" lon="3.63416">
        <ele>447.06110102065</ele>
        <time>2015-04-11T16:35:12Z</time>
      </trkpt>
      <trkpt lat="43.89744" lon="3.634">
        <ele>447.68750604381</ele>
        <time>2015-04-11T16:35:44Z</time>
      </trkpt>
      <trkpt lat="43.89738" lon="3.63395">
        <ele>447.68750604381</ele>
        <time>2015-04-11T16:35:45Z</time>
      </trkpt>
      <trkpt lat="43.89735" lon="3.63394">
        <ele>448.40530025321</ele>
        <time>2015-04-11T16:35:53Z</time>
      </trkpt>
      <trkpt lat="43.8973" lon="3.63391">
        <ele>448.40530025321</ele>
        <time>2015-04-11T16:36:00Z</time>
      </trkpt>
      <trkpt lat="43.89713" lon="3.63377">
        <ele>449.22690325586</ele>
        <time>2015-04-11T16:36:11Z</time>
      </trkpt>
      <trkpt lat="43.89692" lon="3.63359">
        <ele>449.71694180977</ele>
        <time>2015-04-11T16:36:35Z</time>
      </trkpt>
      <trkpt lat="43.8969" lon="3.63354">
        <ele>449.71694180977</ele>
        <time>2015-04-11T16:36:35Z</time>
      </trkpt>
      <trkpt lat="43.89682" lon="3.63354">
        <ele>450.04957117788</ele>
        <time>2015-04-11T16:36:46Z</time>
      </trkpt>
      <trkpt lat="43.89677" lon="3.6335">
        <ele>450.04957117788</ele>
        <time>2015-04-11T16:36:51Z</time>
      </trkpt>
      <trkpt lat="43.89659" lon="3.6333">
        <ele>450.31472441048</ele>
        <time>2015-04-11T16:37:11Z</time>
      </trkpt>
      <trkpt lat="43.89654" lon="3.63328">
        <ele>450.31472441048</ele>
        <time>2015-04-11T16:37:26Z</time>
      </trkpt>
      <trkpt lat="43.89635" lon="3.63317">
        <ele>450.27906862013</ele>
        <time>2015-04-11T16:37:43Z</time>
      </trkpt>
      <trkpt lat="43.89611" lon="3.63292">
        <ele>449.66981350004</ele>
        <time>2015-04-11T16:38:09Z</time>
      </trkpt>
      <trkpt lat="43.89604" lon="3.63284">
        <ele>449.66981350004</ele>
        <time>2015-04-11T16:38:29Z</time>
      </trkpt>
      <trkpt lat="43.89594" lon="3.63277">
        <ele>448.82687899045</ele>
        <time>2015-04-11T16:38:30Z</time>
      </trkpt>
      <trkpt lat="43.89584" lon="3.63268">
        <ele>447.6769764564</ele>
        <time>2015-04-11T16:38:46Z</time>
      </trkpt>
      <trkpt lat="43.89581" lon="3.63264">
        <ele>447.6769764564</ele>
        <time>2015-04-11T16:38:50Z</time>
      </trkpt>
      <trkpt lat="43.89572" lon="3.63265">
        <ele>446.32619849277</ele>
        <time>2015-04-11T16:39:01Z</time>
      </trkpt>
      <trkpt lat="43.89553" lon="3.63269">
        <ele>444.85919344462</ele>
        <time>2015-04-11T16:39:29Z</time>
      </trkpt>
      <trkpt lat="43.89536" lon="3.63266">
        <ele>443.18197284539</ele>
        <time>2015-04-11T16:39:45Z</time>
      </trkpt>
      <trkpt lat="43.89493" lon="3.63207">
        <ele>437.99453653157</ele>
        <time>2015-04-11T16:40:52Z</time>
      </trkpt>
      <trkpt lat="43.89492" lon="3.63202">
        <ele>437.99453653157</ele>
        <time>2015-04-11T16:41:04Z</time>
      </trkpt>
      <trkpt lat="43.89479" lon="3.63172">
        <ele>430.14029724176</ele>
        <time>2015-04-11T16:41:53Z</time>
      </trkpt>
      <trkpt lat="43.89472" lon="3.6318">
        <ele>422.45468425326</ele>
        <time>2015-04-11T16:42:24Z</time>
      </trkpt>
      <trkpt lat="43.89468" lon="3.63141">
        <ele>414.0769418333</ele>
        <time>2015-04-11T16:42:46Z</time>
      </trkpt>
      <trkpt lat="43.8947" lon="3.63135">
        <ele>414.0769418333</ele>
        <time>2015-04-11T16:42:54Z</time>
      </trkpt>
      <trkpt lat="43.89482" lon="3.63095">
        <ele>405.17704410456</ele>
        <time>2015-04-11T16:43:25Z</time>
      </trkpt>
      <trkpt lat="43.89489" lon="3.63063">
        <ele>396.47593475738</ele>
        <time>2015-04-11T16:43:57Z</time>
      </trkpt>
      <trkpt lat="43.89505" lon="3.62983">
        <ele>387.04130892558</ele>
        <time>2015-04-11T16:44:53Z</time>
      </trkpt>
      <trkpt lat="43.89508" lon="3.6298">
        <ele>387.04130892558</ele>
        <time>2015-04-11T16:45:00Z</time>
      </trkpt>
      <trkpt lat="43.89519" lon="3.62924">
        <ele>377.17855650522</ele>
        <time>2015-04-11T16:45:40Z</time>
      </trkpt>
      <trkpt lat="43.89542" lon="3.62871">
        <ele>366.81135484765</ele>
        <time>2015-04-11T16:46:54Z</time>
      </trkpt>
      <trkpt lat="43.89541" lon="3.62869">
        <ele>366.81135484765</ele>
        <time>2015-04-11T16:47:00Z</time>
      </trkpt>
      <trkpt lat="43.89541" lon="3.62865">
        <ele>366.81135484765</ele>
        <time>2015-04-11T16:47:21Z</time>
      </trkpt>
      <trkpt lat="43.89538" lon="3.62831">
        <ele>356.30248433137</ele>
        <time>2015-04-11T16:47:52Z</time>
      </trkpt>
      <trkpt lat="43.89544" lon="3.6282">
        <ele>346.72314066437</ele>
        <time>2015-04-11T16:48:15Z</time>
      </trkpt>
      <trkpt lat="43.89556" lon="3.62767">
        <ele>336.20947710188</ele>
        <time>2015-04-11T16:49:32Z</time>
      </trkpt>
      <trkpt lat="43.8957" lon="3.62736">
        <ele>325.93343475426</ele>
        <time>2015-04-11T16:49:45Z</time>
      </trkpt>
      <trkpt lat="43.89569" lon="3.62726">
        <ele>325.93343475426</ele>
        <time>2015-04-11T16:49:52Z</time>
      </trkpt>
      <trkpt lat="43.89562" lon="3.62718">
        <ele>316.53303414515</ele>
        <time>2015-04-11T16:50:21Z</time>
      </trkpt>
      <trkpt lat="43.89543" lon="3.62666">
        <ele>307.51568882144</ele>
        <time>2015-04-11T16:50:47Z</time>
      </trkpt>
      <trkpt lat="43.89541" lon="3.62661">
        <ele>307.51568882144</ele>
        <time>2015-04-11T16:50:50Z</time>
      </trkpt>
      <trkpt lat="43.89533" lon="3.62649">
        <ele>299.40340834909</ele>
        <time>2015-04-11T16:51:36Z</time>
      </trkpt>
      <trkpt lat="43.89517" lon="3.6263">
        <ele>292.27332173651</ele>
        <time>2015-04-11T16:51:45Z</time>
      </trkpt>
      <trkpt lat="43.8948" lon="3.62623">
        <ele>284.04638896262</ele>
        <time>2015-04-11T16:52:55Z</time>
      </trkpt>
      <trkpt lat="43.89481" lon="3.62602">
        <ele>276.574591756</ele>
        <time>2015-04-11T16:53:23Z</time>
      </trkpt>
      <trkpt lat="43.8946" lon="3.62616">
        <ele>269.45282373842</ele>
        <time>2015-04-11T16:53:46Z</time>
      </trkpt>
      <trkpt lat="43.8946" lon="3.62619">
        <ele>269.45282373842</ele>
        <time>2015-04-11T16:53:50Z</time>
      </trkpt>
      <trkpt lat="43.8946" lon="3.62623">
        <ele>269.45282373842</ele>
        <time>2015-04-11T16:54:01Z</time>
      </trkpt>
      <trkpt lat="43.89448" lon="3.62617">
        <ele>261.41077974815</ele>
        <time>2015-04-11T16:54:38Z</time>
      </trkpt>
      <trkpt lat="43.8942" lon="3.62618">
        <ele>253.00290330724</ele>
        <time>2015-04-11T16:55:09Z</time>
      </trkpt>
      <trkpt lat="43.89399" lon="3.62618">
        <ele>245.21902439798</ele>
        <time>2015-04-11T16:55:31Z</time>
      </trkpt>
      <trkpt lat="43.89392" lon="3.62619">
        <ele>245.21902439798</ele>
        <time>2015-04-11T16:55:45Z</time>
      </trkpt>
      <trkpt lat="43.89392" lon="3.62636">
        <ele>237.54733729876</ele>
        <time>2015-04-11T16:56:08Z</time>
      </trkpt>
      <trkpt lat="43.89394" lon="3.62639">
        <ele>237.54733729876</ele>
        <time>2015-04-11T16:56:15Z</time>
      </trkpt>
      <trkpt lat="43.89369" lon="3.62669">
        <ele>230.68015373989</ele>
        <time>2015-04-11T16:56:50Z</time>
      </trkpt>
      <trkpt lat="43.89363" lon="3.62667">
        <ele>230.68015373989</ele>
        <time>2015-04-11T16:57:02Z</time>
      </trkpt>
      <trkpt lat="43.89344" lon="3.62663">
        <ele>224.80947371117</ele>
        <time>2015-04-11T16:57:15Z</time>
      </trkpt>
      <trkpt lat="43.89337" lon="3.62666">
        <ele>224.80947371117</ele>
        <time>2015-04-11T16:57:27Z</time>
      </trkpt>
      <trkpt lat="43.89321" lon="3.62666">
        <ele>219.87938414591</ele>
        <time>2015-04-11T16:57:34Z</time>
      </trkpt>
      <trkpt lat="43.89305" lon="3.62652">
        <ele>215.76297398107</ele>
        <time>2015-04-11T16:58:09Z</time>
      </trkpt>
      <trkpt lat="43.89275" lon="3.62623">
        <ele>212.08059175761</ele>
        <time>2015-04-11T16:58:45Z</time>
      </trkpt>
      <trkpt lat="43.8926" lon="3.62612">
        <ele>209.04094650636</ele>
        <time>2015-04-11T16:59:00Z</time>
      </trkpt>
      <trkpt lat="43.89222" lon="3.62648">
        <ele>206.27327400647</ele>
        <time>2015-04-11T16:59:43Z</time>
      </trkpt>
      <trkpt lat="43.8922" lon="3.62652">
        <ele>206.27327400647</ele>
        <time>2015-04-11T16:59:46Z</time>
      </trkpt>
      <trkpt lat="43.89216" lon="3.62655">
        <ele>206.27327400647</ele>
        <time>2015-04-11T16:59:50Z</time>
      </trkpt>
      <trkpt lat="43.89176" lon="3.62662">
        <ele>203.72124194494</ele>
        <time>2015-04-11T17:00:43Z</time>
      </trkpt>
      <trkpt lat="43.89172" lon="3.62661">
        <ele>203.72124194494</ele>
        <time>2015-04-11T17:00:45Z</time>
      </trkpt>
      <trkpt lat="43.89163" lon="3.62658">
        <ele>201.74975279077</ele>
        <time>2015-04-11T17:00:52Z</time>
      </trkpt>
      <trkpt lat="43.89143" lon="3.62634">
        <ele>200.27717540077</ele>
        <time>2015-04-11T17:01:21Z</time>
      </trkpt>
      <trkpt lat="43.8912" lon="3.62616">
        <ele>199.16869822235</ele>
        <time>2015-04-11T17:01:35Z</time>
      </trkpt>
      <trkpt lat="43.89113" lon="3.62606">
        <ele>198.48564799226</ele>
        <time>2015-04-11T17:01:46Z</time>
      </trkpt>
      <trkpt lat="43.8911" lon="3.62605">
        <ele>198.48564799226</ele>
        <time>2015-04-11T17:01:56Z</time>
      </trkpt>
      <trkpt lat="43.89087" lon="3.626">
        <ele>198.21155497599</ele>
        <time>2015-04-11T17:02:10Z</time>
      </trkpt>
      <trkpt lat="43.89056" lon="3.62581">
        <ele>198.28678195606</ele>
        <time>2015-04-11T17:02:38Z</time>
      </trkpt>
      <trkpt lat="43.89062" lon="3.62576">
        <ele>198.28678195606</ele>
        <time>2015-04-11T17:02:50Z</time>
      </trkpt>
      <trkpt lat="43.89067" lon="3.62584">
        <ele>195.96025777992</ele>
        <time>2015-04-11T17:03:02Z</time>
      </trkpt>
      <trkpt lat="43.89066" lon="3.62585">
        <ele>195.96025777992</ele>
        <time>2015-04-11T17:03:03Z</time>
      </trkpt>
      <trkpt lat="43.89067" lon="3.62586">
        <ele>195.96025777992</ele>
        <time>2015-04-11T17:03:22Z</time>
      </trkpt>
      <trkpt lat="43.89066" lon="3.62576">
        <ele>195.96025777992</ele>
        <time>2015-04-11T17:03:40Z</time>
      </trkpt>
      <trkpt lat="43.8906" lon="3.62528">
        <ele>192.91227712951</ele>
        <time>2015-04-11T17:03:55Z</time>
      </trkpt>
      <trkpt lat="43.89049" lon="3.62527">
        <ele>190.37037677486</ele>
        <time>2015-04-11T17:04:26Z</time>
      </trkpt>
      <trkpt lat="43.88995" lon="3.62512">
        <ele>187.74129359522</ele>
        <time>2015-04-11T17:04:47Z</time>
      </trkpt>
      <trkpt lat="43.8899" lon="3.62509">
        <ele>187.74129359522</ele>
        <time>2015-04-11T17:04:52Z</time>
      </trkpt>
      <trkpt lat="43.88989" lon="3.62509">
        <ele>187.74129359522</ele>
        <time>2015-04-11T17:04:55Z</time>
      </trkpt>
      <trkpt lat="43.88985" lon="3.62508">
        <ele>185.19628859739</ele>
        <time>2015-04-11T17:05:00Z</time>
      </trkpt>
      <trkpt lat="43.88982" lon="3.62505">
        <ele>185.19628859739</ele>
        <time>2015-04-11T17:05:05Z</time>
      </trkpt>
      <trkpt lat="43.88978" lon="3.62501">
        <ele>185.19628859739</ele>
        <time>2015-04-11T17:05:10Z</time>
      </trkpt>
      <trkpt lat="43.88978" lon="3.62498">
        <ele>183.16777467128</ele>
        <time>2015-04-11T17:05:15Z</time>
      </trkpt>
      <trkpt lat="43.88975" lon="3.62497">
        <ele>183.16777467128</ele>
        <time>2015-04-11T17:05:20Z</time>
      </trkpt>
      <trkpt lat="43.88975" lon="3.62497">
        <ele>183.16777467128</ele>
        <time>2015-04-11T17:05:26Z</time>
      </trkpt>
      <trkpt lat="43.88982" lon="3.6249">
        <ele>181.39221145314</ele>
        <time>2015-04-11T17:05:45Z</time>
      </trkpt>
      <trkpt lat="43.8898" lon="3.62489">
        <ele>181.39221145314</ele>
        <time>2015-04-11T17:05:50Z</time>
      </trkpt>
      <trkpt lat="43.88979" lon="3.6249">
        <ele>181.39221145314</ele>
        <time>2015-04-11T17:05:55Z</time>
      </trkpt>
    </trkseg>
  </trk>
</gpx>